<?xml version="1.0" encoding="UTF-8"?>
<gpx version="1.1" creator="2bulu-scraper" xmlns="http://www.topografix.com/GPX/1/1">
  <metadata><name>宜宾叙州区七星湖寨子岩逆时针</name><desc>source: 2bulu.com trackId=75551681; exported 2026-08-31T01:40:51.268Z</desc>
    <bounds minlat="28.6723068" minlon="104.6124632" maxlat="28.6924722" maxlon="104.6287455"/>
    <link href="https://www.2bulu.com/track/t-pUZXr0q5Muvp%252FR2KBg5Tzw%253D%253D.htm"><text>2bulu 源页面</text></link>
  </metadata>
  <wpt lat="28.6906093" lon="104.6195131"><ele>369</ele><name>
        </name></wpt>
  <wpt lat="28.6885124" lon="104.6201144"><ele>410</ele><name>
        </name></wpt>
  <wpt lat="28.6848781" lon="104.6129751"><ele>355</ele><name>
        </name></wpt>
  <wpt lat="28.6801928" lon="104.6130934"><ele>342</ele><name>
        </name></wpt>
  <wpt lat="28.6786277" lon="104.6134269"><ele>353</ele><name>
        </name></wpt>
  <wpt lat="28.6762475" lon="104.6127673"><ele>372</ele><name>
        </name></wpt>
  <wpt lat="28.6759095" lon="104.6133848"><ele>388</ele><name>
        </name></wpt>
  <wpt lat="28.6778234" lon="104.6187714"><ele>590</ele><name>
        </name></wpt>
  <wpt lat="28.6785348" lon="104.6223064"><ele>582</ele><name>
        </name></wpt>
  <wpt lat="28.6815419" lon="104.6276174"><ele>497</ele><name>
        </name></wpt>
  <wpt lat="28.689088" lon="104.6256301"><ele>366</ele><name>
        </name></wpt>
  <wpt lat="28.6924722" lon="104.6237126"><ele>362</ele><name>
        </name></wpt>
  <trk><name>宜宾叙州区七星湖寨子岩逆时针</name>
      <trkseg>
        <trkpt lat="28.6915968" lon="104.6227657"><ele>356.9</ele><time>2025-12-02T21:12:04.000Z</time></trkpt>
        <trkpt lat="28.6915097" lon="104.6227689"><ele>356.9</ele><time>2025-12-02T21:12:16.000Z</time></trkpt>
        <trkpt lat="28.6914311" lon="104.6228169"><ele>357.06</ele><time>2025-12-02T21:12:22.000Z</time></trkpt>
        <trkpt lat="28.6913444" lon="104.6228962"><ele>357.56</ele><time>2025-12-02T21:12:30.000Z</time></trkpt>
        <trkpt lat="28.6912421" lon="104.6229415"><ele>358.6</ele><time>2025-12-02T21:12:38.000Z</time></trkpt>
        <trkpt lat="28.6911406" lon="104.6229229"><ele>359.15</ele><time>2025-12-02T21:12:46.000Z</time></trkpt>
        <trkpt lat="28.6910451" lon="104.6228633"><ele>359.19</ele><time>2025-12-02T21:12:54.000Z</time></trkpt>
        <trkpt lat="28.6910122" lon="104.6228287"><ele>362.46</ele><time>2025-12-02T21:12:58.000Z</time></trkpt>
        <trkpt lat="28.690939" lon="104.6228571"><ele>364.2</ele><time>2025-12-02T21:13:14.000Z</time></trkpt>
        <trkpt lat="28.690837" lon="104.6229085"><ele>364.78</ele><time>2025-12-02T21:13:23.000Z</time></trkpt>
        <trkpt lat="28.6907273" lon="104.6228985"><ele>366.61</ele><time>2025-12-02T21:13:31.000Z</time></trkpt>
        <trkpt lat="28.690639" lon="104.622835"><ele>367.97</ele><time>2025-12-02T21:13:37.000Z</time></trkpt>
        <trkpt lat="28.6906186" lon="104.6227061"><ele>368.31</ele><time>2025-12-02T21:13:45.000Z</time></trkpt>
        <trkpt lat="28.6905971" lon="104.6225878"><ele>367.11</ele><time>2025-12-02T21:13:49.000Z</time></trkpt>
        <trkpt lat="28.6905932" lon="104.6224362"><ele>367.11</ele><time>2025-12-02T21:13:55.000Z</time></trkpt>
        <trkpt lat="28.6906036" lon="104.6223028"><ele>367.97</ele><time>2025-12-02T21:14:01.000Z</time></trkpt>
        <trkpt lat="28.6906138" lon="104.6222351"><ele>369.71</ele><time>2025-12-02T21:14:05.000Z</time></trkpt>
        <trkpt lat="28.690651" lon="104.6221566"><ele>370.31</ele><time>2025-12-02T21:14:25.000Z</time></trkpt>
        <trkpt lat="28.6907342" lon="104.622112"><ele>370.38</ele><time>2025-12-02T21:14:35.000Z</time></trkpt>
        <trkpt lat="28.6908219" lon="104.6220572"><ele>370.54</ele><time>2025-12-02T21:14:45.000Z</time></trkpt>
        <trkpt lat="28.690889" lon="104.621964"><ele>369.95</ele><time>2025-12-02T21:15:03.000Z</time></trkpt>
        <trkpt lat="28.6909624" lon="104.6218875"><ele>370.23</ele><time>2025-12-02T21:15:15.000Z</time></trkpt>
        <trkpt lat="28.691052" lon="104.6218612"><ele>371.31</ele><time>2025-12-02T21:18:12.000Z</time></trkpt>
        <trkpt lat="28.6910741" lon="104.6217595"><ele>372.11</ele><time>2025-12-02T21:18:50.000Z</time></trkpt>
        <trkpt lat="28.6910679" lon="104.6218679"><ele>375.11</ele><time>2025-12-02T21:21:48.000Z</time></trkpt>
        <trkpt lat="28.6909873" lon="104.6219334"><ele>375.73</ele><time>2025-12-02T21:22:22.000Z</time></trkpt>
        <trkpt lat="28.690876" lon="104.6219345"><ele>377.37</ele><time>2025-12-02T21:22:50.000Z</time></trkpt>
        <trkpt lat="28.6908429" lon="104.6218968"><ele>373.71</ele><time>2025-12-02T21:23:02.000Z</time></trkpt>
        <trkpt lat="28.6908332" lon="104.6217992"><ele>375.03</ele><time>2025-12-02T21:23:34.000Z</time></trkpt>
        <trkpt lat="28.6907989" lon="104.6216873"><ele>373.29</ele><time>2025-12-02T21:23:47.000Z</time></trkpt>
        <trkpt lat="28.6907279" lon="104.6216133"><ele>372.45</ele><time>2025-12-02T21:23:57.000Z</time></trkpt>
        <trkpt lat="28.6906324" lon="104.6215725"><ele>371.94</ele><time>2025-12-02T21:24:07.000Z</time></trkpt>
        <trkpt lat="28.6905282" lon="104.6215522"><ele>371.17</ele><time>2025-12-02T21:24:23.000Z</time></trkpt>
        <trkpt lat="28.6904274" lon="104.6215232"><ele>370.97</ele><time>2025-12-02T21:24:33.000Z</time></trkpt>
        <trkpt lat="28.690324" lon="104.6215055"><ele>370.84</ele><time>2025-12-02T21:24:43.000Z</time></trkpt>
        <trkpt lat="28.6902325" lon="104.621481"><ele>370.92</ele><time>2025-12-02T21:24:51.000Z</time></trkpt>
        <trkpt lat="28.6901623" lon="104.6214091"><ele>371.58</ele><time>2025-12-02T21:24:59.000Z</time></trkpt>
        <trkpt lat="28.6901095" lon="104.6213109"><ele>372.36</ele><time>2025-12-02T21:25:07.000Z</time></trkpt>
        <trkpt lat="28.6901014" lon="104.6211963"><ele>373.82</ele><time>2025-12-02T21:25:13.000Z</time></trkpt>
        <trkpt lat="28.6901198" lon="104.621083"><ele>374.93</ele><time>2025-12-02T21:25:19.000Z</time></trkpt>
        <trkpt lat="28.6901517" lon="104.6209724"><ele>375.01</ele><time>2025-12-02T21:25:27.000Z</time></trkpt>
        <trkpt lat="28.6901712" lon="104.620858"><ele>373.66</ele><time>2025-12-02T21:25:35.000Z</time></trkpt>
        <trkpt lat="28.6902075" lon="104.620744"><ele>372.72</ele><time>2025-12-02T21:25:43.000Z</time></trkpt>
        <trkpt lat="28.6902485" lon="104.6206374"><ele>371.52</ele><time>2025-12-02T21:25:49.000Z</time></trkpt>
        <trkpt lat="28.6902936" lon="104.620521"><ele>370.99</ele><time>2025-12-02T21:25:54.000Z</time></trkpt>
        <trkpt lat="28.6903367" lon="104.6204186"><ele>370.27</ele><time>2025-12-02T21:25:58.000Z</time></trkpt>
        <trkpt lat="28.6903877" lon="104.620327"><ele>369.47</ele><time>2025-12-02T21:26:02.000Z</time></trkpt>
        <trkpt lat="28.6904579" lon="104.6202264"><ele>368.26</ele><time>2025-12-02T21:26:08.000Z</time></trkpt>
        <trkpt lat="28.6905074" lon="104.6201242"><ele>366.64</ele><time>2025-12-02T21:26:14.000Z</time></trkpt>
        <trkpt lat="28.690524" lon="104.6199918"><ele>365.42</ele><time>2025-12-02T21:26:22.000Z</time></trkpt>
        <trkpt lat="28.6905496" lon="104.6198514"><ele>366.36</ele><time>2025-12-02T21:26:28.000Z</time></trkpt>
        <trkpt lat="28.690581" lon="104.6197252"><ele>367.93</ele><time>2025-12-02T21:26:34.000Z</time></trkpt>
        <trkpt lat="28.6906102" lon="104.6195914"><ele>368.96</ele><time>2025-12-02T21:26:40.000Z</time></trkpt>
        <trkpt lat="28.6906093" lon="104.6195131"><ele>369.13</ele><time>2025-12-02T21:26:50.000Z</time></trkpt>
        <trkpt lat="28.6905306" lon="104.6195332"><ele>368.94</ele><time>2025-12-02T21:27:13.000Z</time></trkpt>
        <trkpt lat="28.690432" lon="104.6195799"><ele>367.54</ele><time>2025-12-02T21:27:21.000Z</time></trkpt>
        <trkpt lat="28.6903417" lon="104.6196661"><ele>366.04</ele><time>2025-12-02T21:27:29.000Z</time></trkpt>
        <trkpt lat="28.6902795" lon="104.6197905"><ele>364.46</ele><time>2025-12-02T21:27:37.000Z</time></trkpt>
        <trkpt lat="28.6902369" lon="104.6199043"><ele>362.99</ele><time>2025-12-02T21:27:43.000Z</time></trkpt>
        <trkpt lat="28.6901777" lon="104.6200224"><ele>361.79</ele><time>2025-12-02T21:27:51.000Z</time></trkpt>
        <trkpt lat="28.6901174" lon="104.6201174"><ele>361.27</ele><time>2025-12-02T21:27:57.000Z</time></trkpt>
        <trkpt lat="28.690056" lon="104.6201994"><ele>361.17</ele><time>2025-12-02T21:28:03.000Z</time></trkpt>
        <trkpt lat="28.6899932" lon="104.6202725"><ele>360.78</ele><time>2025-12-02T21:28:09.000Z</time></trkpt>
        <trkpt lat="28.6899539" lon="104.6203121"><ele>360.53</ele><time>2025-12-02T21:28:13.000Z</time></trkpt>
        <trkpt lat="28.68989" lon="104.6203824"><ele>360.29</ele><time>2025-12-02T21:28:31.000Z</time></trkpt>
        <trkpt lat="28.6898146" lon="104.620474"><ele>360</ele><time>2025-12-02T21:28:39.000Z</time></trkpt>
        <trkpt lat="28.6897446" lon="104.6205664"><ele>360.07</ele><time>2025-12-02T21:28:45.000Z</time></trkpt>
        <trkpt lat="28.6896954" lon="104.6206594"><ele>359.94</ele><time>2025-12-02T21:28:51.000Z</time></trkpt>
        <trkpt lat="28.689645" lon="104.6207518"><ele>359.87</ele><time>2025-12-02T21:28:57.000Z</time></trkpt>
        <trkpt lat="28.6895991" lon="104.6208698"><ele>359.33</ele><time>2025-12-02T21:29:05.000Z</time></trkpt>
        <trkpt lat="28.6895593" lon="104.6209716"><ele>359.36</ele><time>2025-12-02T21:29:11.000Z</time></trkpt>
        <trkpt lat="28.6895228" lon="104.6210705"><ele>359.1</ele><time>2025-12-02T21:29:17.000Z</time></trkpt>
        <trkpt lat="28.6894734" lon="104.6211629"><ele>358.72</ele><time>2025-12-02T21:29:23.000Z</time></trkpt>
        <trkpt lat="28.6893974" lon="104.6212172"><ele>358.31</ele><time>2025-12-02T21:29:29.000Z</time></trkpt>
        <trkpt lat="28.6893062" lon="104.6212348"><ele>358.37</ele><time>2025-12-02T21:29:35.000Z</time></trkpt>
        <trkpt lat="28.6892095" lon="104.6212396"><ele>358.61</ele><time>2025-12-02T21:29:41.000Z</time></trkpt>
        <trkpt lat="28.689116" lon="104.6212158"><ele>359.22</ele><time>2025-12-02T21:29:47.000Z</time></trkpt>
        <trkpt lat="28.6890079" lon="104.6211692"><ele>361.27</ele><time>2025-12-02T21:29:55.000Z</time></trkpt>
        <trkpt lat="28.6888985" lon="104.6211797"><ele>363.36</ele><time>2025-12-02T21:30:02.000Z</time></trkpt>
        <trkpt lat="28.6888082" lon="104.6212245"><ele>365.1</ele><time>2025-12-02T21:30:08.000Z</time></trkpt>
        <trkpt lat="28.6887174" lon="104.621265"><ele>365.88</ele><time>2025-12-02T21:30:16.000Z</time></trkpt>
        <trkpt lat="28.6886154" lon="104.621259"><ele>365.74</ele><time>2025-12-02T21:30:28.000Z</time></trkpt>
        <trkpt lat="28.6885175" lon="104.6212371"><ele>365.54</ele><time>2025-12-02T21:30:36.000Z</time></trkpt>
        <trkpt lat="28.6884315" lon="104.6211956"><ele>365.3</ele><time>2025-12-02T21:30:42.000Z</time></trkpt>
        <trkpt lat="28.6883605" lon="104.6211263"><ele>365.03</ele><time>2025-12-02T21:30:48.000Z</time></trkpt>
        <trkpt lat="28.6883308" lon="104.6210266"><ele>364.83</ele><time>2025-12-02T21:31:02.000Z</time></trkpt>
        <trkpt lat="28.6882893" lon="104.6209538"><ele>365.67</ele><time>2025-12-02T21:31:18.000Z</time></trkpt>
        <trkpt lat="28.6882639" lon="104.6208561"><ele>369.5</ele><time>2025-12-02T21:31:29.000Z</time></trkpt>
        <trkpt lat="28.6883291" lon="104.6208147"><ele>368.36</ele><time>2025-12-02T21:31:55.000Z</time></trkpt>
        <trkpt lat="28.6883589" lon="104.6207231"><ele>369.33</ele><time>2025-12-02T21:32:21.000Z</time></trkpt>
        <trkpt lat="28.6883524" lon="104.6206406"><ele>372.82</ele><time>2025-12-02T21:32:29.000Z</time></trkpt>
        <trkpt lat="28.6883262" lon="104.6205461"><ele>375.52</ele><time>2025-12-02T21:32:43.000Z</time></trkpt>
        <trkpt lat="28.6883703" lon="104.6205857"><ele>378.58</ele><time>2025-12-02T21:32:59.000Z</time></trkpt>
        <trkpt lat="28.688426" lon="104.6206371"><ele>379.4</ele><time>2025-12-02T21:33:07.000Z</time></trkpt>
        <trkpt lat="28.6884054" lon="104.6205868"><ele>381.13</ele><time>2025-12-02T21:33:19.000Z</time></trkpt>
        <trkpt lat="28.6883471" lon="104.6205087"><ele>381.74</ele><time>2025-12-02T21:33:29.000Z</time></trkpt>
        <trkpt lat="28.6883214" lon="104.620402"><ele>382.6</ele><time>2025-12-02T21:33:41.000Z</time></trkpt>
        <trkpt lat="28.6883624" lon="104.6204353"><ele>386.33</ele><time>2025-12-02T21:34:15.000Z</time></trkpt>
        <trkpt lat="28.6884356" lon="104.6205127"><ele>390.7</ele><time>2025-12-02T21:34:25.000Z</time></trkpt>
        <trkpt lat="28.6884724" lon="104.6204627"><ele>392.35</ele><time>2025-12-02T21:34:38.000Z</time></trkpt>
        <trkpt lat="28.6884851" lon="104.6203517"><ele>395.29</ele><time>2025-12-02T21:34:50.000Z</time></trkpt>
        <trkpt lat="28.6884901" lon="104.6202328"><ele>397.33</ele><time>2025-12-02T21:35:08.000Z</time></trkpt>
        <trkpt lat="28.6885124" lon="104.6201144"><ele>400.87</ele><time>2025-12-02T21:35:28.000Z</time></trkpt>
        <trkpt lat="28.6885124" lon="104.6201144"><ele>400.87</ele><time>2025-12-02T21:36:01.000Z</time></trkpt>
      </trkseg>
      <trkseg>
        <trkpt lat="28.688533" lon="104.6199985"><ele>404.92</ele><time>2025-12-02T21:36:03.000Z</time></trkpt>
        <trkpt lat="28.688533" lon="104.6199985"><ele>404.92</ele><time>2025-12-02T21:36:05.000Z</time></trkpt>
        <trkpt lat="28.6884756" lon="104.6199248"><ele>405.9</ele><time>2025-12-02T21:36:21.000Z</time></trkpt>
        <trkpt lat="28.6883996" lon="104.6198513"><ele>407.07</ele><time>2025-12-02T21:36:43.000Z</time></trkpt>
        <trkpt lat="28.6883108" lon="104.6198034"><ele>408.22</ele><time>2025-12-02T21:36:59.000Z</time></trkpt>
        <trkpt lat="28.6882506" lon="104.6197202"><ele>409.96</ele><time>2025-12-02T21:37:16.000Z</time></trkpt>
        <trkpt lat="28.6881915" lon="104.6196381"><ele>412.58</ele><time>2025-12-02T21:37:26.000Z</time></trkpt>
        <trkpt lat="28.6881159" lon="104.6195619"><ele>413.98</ele><time>2025-12-02T21:37:38.000Z</time></trkpt>
        <trkpt lat="28.688098" lon="104.6194597"><ele>415.82</ele><time>2025-12-02T21:38:25.000Z</time></trkpt>
        <trkpt lat="28.6881659" lon="104.6194462"><ele>414.28</ele><time>2025-12-02T21:38:49.000Z</time></trkpt>
        <trkpt lat="28.6882445" lon="104.6195124"><ele>411.97</ele><time>2025-12-02T21:39:01.000Z</time></trkpt>
        <trkpt lat="28.6882518" lon="104.6196249"><ele>410</ele><time>2025-12-02T21:39:19.000Z</time></trkpt>
        <trkpt lat="28.6882887" lon="104.6197369"><ele>410.92</ele><time>2025-12-02T21:39:29.000Z</time></trkpt>
        <trkpt lat="28.6883551" lon="104.6198325"><ele>410.88</ele><time>2025-12-02T21:39:47.000Z</time></trkpt>
        <trkpt lat="28.6884316" lon="104.6199157"><ele>408.88</ele><time>2025-12-02T21:39:57.000Z</time></trkpt>
        <trkpt lat="28.6885209" lon="104.6199836"><ele>406.49</ele><time>2025-12-02T21:40:05.000Z</time></trkpt>
        <trkpt lat="28.6886256" lon="104.6200157"><ele>403.84</ele><time>2025-12-02T21:40:15.000Z</time></trkpt>
        <trkpt lat="28.688645" lon="104.6199388"><ele>401.97</ele><time>2025-12-02T21:40:34.000Z</time></trkpt>
        <trkpt lat="28.6886541" lon="104.6198265"><ele>400.89</ele><time>2025-12-02T21:40:54.000Z</time></trkpt>
        <trkpt lat="28.6886745" lon="104.6197004"><ele>400.72</ele><time>2025-12-02T21:41:08.000Z</time></trkpt>
        <trkpt lat="28.6886775" lon="104.6195765"><ele>395.69</ele><time>2025-12-02T21:41:24.000Z</time></trkpt>
        <trkpt lat="28.6886969" lon="104.619457"><ele>388.55</ele><time>2025-12-02T21:41:46.000Z</time></trkpt>
        <trkpt lat="28.6887125" lon="104.619339"><ele>382.83</ele><time>2025-12-02T21:42:02.000Z</time></trkpt>
        <trkpt lat="28.6886961" lon="104.6192314"><ele>377.97</ele><time>2025-12-02T21:42:22.000Z</time></trkpt>
        <trkpt lat="28.6887068" lon="104.6191263"><ele>374.94</ele><time>2025-12-02T21:42:32.000Z</time></trkpt>
        <trkpt lat="28.6887535" lon="104.6190277"><ele>371.13</ele><time>2025-12-02T21:42:37.000Z</time></trkpt>
        <trkpt lat="28.6887928" lon="104.618916"><ele>369.41</ele><time>2025-12-02T21:42:45.000Z</time></trkpt>
        <trkpt lat="28.6888296" lon="104.6188037"><ele>368.99</ele><time>2025-12-02T21:42:53.000Z</time></trkpt>
        <trkpt lat="28.6888676" lon="104.6186989"><ele>368.7</ele><time>2025-12-02T21:43:01.000Z</time></trkpt>
        <trkpt lat="28.688912" lon="104.6185875"><ele>367.76</ele><time>2025-12-02T21:43:11.000Z</time></trkpt>
        <trkpt lat="28.6889425" lon="104.6184821"><ele>366.62</ele><time>2025-12-02T21:43:19.000Z</time></trkpt>
        <trkpt lat="28.6889755" lon="104.6183803"><ele>365.87</ele><time>2025-12-02T21:43:27.000Z</time></trkpt>
        <trkpt lat="28.6890033" lon="104.6182546"><ele>365.14</ele><time>2025-12-02T21:43:35.000Z</time></trkpt>
        <trkpt lat="28.6890542" lon="104.6181218"><ele>366.26</ele><time>2025-12-02T21:43:41.000Z</time></trkpt>
        <trkpt lat="28.6890888" lon="104.6180062"><ele>366.82</ele><time>2025-12-02T21:43:48.000Z</time></trkpt>
        <trkpt lat="28.6891254" lon="104.6179087"><ele>367.26</ele><time>2025-12-02T21:43:54.000Z</time></trkpt>
        <trkpt lat="28.6891557" lon="104.6177931"><ele>366.68</ele><time>2025-12-02T21:44:02.000Z</time></trkpt>
        <trkpt lat="28.6891645" lon="104.6176735"><ele>367.07</ele><time>2025-12-02T21:44:10.000Z</time></trkpt>
        <trkpt lat="28.6891463" lon="104.6175495"><ele>367.5</ele><time>2025-12-02T21:44:18.000Z</time></trkpt>
        <trkpt lat="28.6891318" lon="104.6174221"><ele>367.28</ele><time>2025-12-02T21:44:26.000Z</time></trkpt>
        <trkpt lat="28.6891318" lon="104.6172944"><ele>366.9</ele><time>2025-12-02T21:44:34.000Z</time></trkpt>
        <trkpt lat="28.6891483" lon="104.6171511"><ele>367.49</ele><time>2025-12-02T21:44:40.000Z</time></trkpt>
        <trkpt lat="28.6891669" lon="104.6170203"><ele>365.04</ele><time>2025-12-02T21:44:44.000Z</time></trkpt>
        <trkpt lat="28.6891769" lon="104.6168664"><ele>363.18</ele><time>2025-12-02T21:44:49.000Z</time></trkpt>
        <trkpt lat="28.6891723" lon="104.6167276"><ele>361.26</ele><time>2025-12-02T21:44:53.000Z</time></trkpt>
        <trkpt lat="28.6891812" lon="104.6166067"><ele>359.63</ele><time>2025-12-02T21:44:57.000Z</time></trkpt>
        <trkpt lat="28.6892033" lon="104.6164972"><ele>359.26</ele><time>2025-12-02T21:45:01.000Z</time></trkpt>
        <trkpt lat="28.6891793" lon="104.616374"><ele>359.13</ele><time>2025-12-02T21:45:07.000Z</time></trkpt>
        <trkpt lat="28.6890955" lon="104.6162647"><ele>358.74</ele><time>2025-12-02T21:45:13.000Z</time></trkpt>
        <trkpt lat="28.6889873" lon="104.6161939"><ele>359.38</ele><time>2025-12-02T21:45:19.000Z</time></trkpt>
        <trkpt lat="28.6888765" lon="104.6161825"><ele>359.83</ele><time>2025-12-02T21:45:25.000Z</time></trkpt>
        <trkpt lat="28.6887611" lon="104.6162127"><ele>360.11</ele><time>2025-12-02T21:45:33.000Z</time></trkpt>
        <trkpt lat="28.6886457" lon="104.6162608"><ele>361.05</ele><time>2025-12-02T21:45:41.000Z</time></trkpt>
        <trkpt lat="28.6885286" lon="104.6163037"><ele>361.55</ele><time>2025-12-02T21:45:49.000Z</time></trkpt>
        <trkpt lat="28.6884177" lon="104.6163128"><ele>363.38</ele><time>2025-12-02T21:45:56.000Z</time></trkpt>
        <trkpt lat="28.6883233" lon="104.616286"><ele>364.13</ele><time>2025-12-02T21:46:02.000Z</time></trkpt>
        <trkpt lat="28.6882354" lon="104.6162576"><ele>364.9</ele><time>2025-12-02T21:46:08.000Z</time></trkpt>
        <trkpt lat="28.6881346" lon="104.6162394"><ele>365.36</ele><time>2025-12-02T21:46:16.000Z</time></trkpt>
        <trkpt lat="28.6880306" lon="104.6161944"><ele>364.41</ele><time>2025-12-02T21:46:24.000Z</time></trkpt>
        <trkpt lat="28.6879336" lon="104.6161448"><ele>362.76</ele><time>2025-12-02T21:46:30.000Z</time></trkpt>
        <trkpt lat="28.6878446" lon="104.6161068"><ele>361.28</ele><time>2025-12-02T21:46:34.000Z</time></trkpt>
        <trkpt lat="28.687759" lon="104.6160565"><ele>359.98</ele><time>2025-12-02T21:46:38.000Z</time></trkpt>
        <trkpt lat="28.6876805" lon="104.6159983"><ele>359.26</ele><time>2025-12-02T21:46:42.000Z</time></trkpt>
        <trkpt lat="28.6876055" lon="104.6159348"><ele>358.63</ele><time>2025-12-02T21:46:46.000Z</time></trkpt>
        <trkpt lat="28.687531" lon="104.6158743"><ele>357.95</ele><time>2025-12-02T21:46:50.000Z</time></trkpt>
        <trkpt lat="28.6874301" lon="104.6158178"><ele>356.79</ele><time>2025-12-02T21:46:55.000Z</time></trkpt>
        <trkpt lat="28.687332" lon="104.6157635"><ele>356.94</ele><time>2025-12-02T21:47:01.000Z</time></trkpt>
        <trkpt lat="28.6872321" lon="104.6157161"><ele>359.47</ele><time>2025-12-02T21:47:05.000Z</time></trkpt>
        <trkpt lat="28.6871312" lon="104.6156797"><ele>361.84</ele><time>2025-12-02T21:47:09.000Z</time></trkpt>
        <trkpt lat="28.6870233" lon="104.6156439"><ele>362.96</ele><time>2025-12-02T21:47:13.000Z</time></trkpt>
        <trkpt lat="28.686921" lon="104.6156144"><ele>363.28</ele><time>2025-12-02T21:47:17.000Z</time></trkpt>
        <trkpt lat="28.6868225" lon="104.6155946"><ele>363.28</ele><time>2025-12-02T21:47:21.000Z</time></trkpt>
        <trkpt lat="28.6867277" lon="104.61558"><ele>363.18</ele><time>2025-12-02T21:47:25.000Z</time></trkpt>
        <trkpt lat="28.6866372" lon="104.6155651"><ele>363.15</ele><time>2025-12-02T21:47:31.000Z</time></trkpt>
        <trkpt lat="28.6865366" lon="104.615523"><ele>363.07</ele><time>2025-12-02T21:47:39.000Z</time></trkpt>
        <trkpt lat="28.6864446" lon="104.6154386"><ele>362.41</ele><time>2025-12-02T21:47:47.000Z</time></trkpt>
        <trkpt lat="28.6863821" lon="104.6153184"><ele>360.65</ele><time>2025-12-02T21:47:55.000Z</time></trkpt>
        <trkpt lat="28.6863511" lon="104.6151897"><ele>358.59</ele><time>2025-12-02T21:48:02.000Z</time></trkpt>
        <trkpt lat="28.6863517" lon="104.6150504"><ele>356.92</ele><time>2025-12-02T21:48:10.000Z</time></trkpt>
        <trkpt lat="28.6863588" lon="104.6149294"><ele>356.62</ele><time>2025-12-02T21:48:16.000Z</time></trkpt>
        <trkpt lat="28.6863689" lon="104.6148208"><ele>357.01</ele><time>2025-12-02T21:48:22.000Z</time></trkpt>
        <trkpt lat="28.6863711" lon="104.6147174"><ele>357.21</ele><time>2025-12-02T21:48:28.000Z</time></trkpt>
        <trkpt lat="28.6863479" lon="104.6145821"><ele>357.09</ele><time>2025-12-02T21:48:34.000Z</time></trkpt>
        <trkpt lat="28.6863214" lon="104.6144592"><ele>356.14</ele><time>2025-12-02T21:48:38.000Z</time></trkpt>
        <trkpt lat="28.6862912" lon="104.6143515"><ele>355.5</ele><time>2025-12-02T21:48:42.000Z</time></trkpt>
        <trkpt lat="28.6862427" lon="104.6142517"><ele>354.82</ele><time>2025-12-02T21:48:46.000Z</time></trkpt>
        <trkpt lat="28.6861766" lon="104.6141696"><ele>354.35</ele><time>2025-12-02T21:48:50.000Z</time></trkpt>
        <trkpt lat="28.6860992" lon="104.6140797"><ele>353.9</ele><time>2025-12-02T21:48:56.000Z</time></trkpt>
        <trkpt lat="28.6860481" lon="104.6139799"><ele>353.68</ele><time>2025-12-02T21:49:03.000Z</time></trkpt>
        <trkpt lat="28.6859716" lon="104.613884"><ele>353.9</ele><time>2025-12-02T21:49:11.000Z</time></trkpt>
        <trkpt lat="28.6858861" lon="104.613823"><ele>353.53</ele><time>2025-12-02T21:49:17.000Z</time></trkpt>
        <trkpt lat="28.6858018" lon="104.6137722"><ele>352.81</ele><time>2025-12-02T21:49:23.000Z</time></trkpt>
        <trkpt lat="28.6857312" lon="104.6137077"><ele>352.32</ele><time>2025-12-02T21:49:29.000Z</time></trkpt>
        <trkpt lat="28.6856658" lon="104.6136376"><ele>351.79</ele><time>2025-12-02T21:49:35.000Z</time></trkpt>
        <trkpt lat="28.6855905" lon="104.6135504"><ele>351.79</ele><time>2025-12-02T21:49:43.000Z</time></trkpt>
        <trkpt lat="28.6855059" lon="104.6134617"><ele>351.98</ele><time>2025-12-02T21:49:51.000Z</time></trkpt>
        <trkpt lat="28.6854053" lon="104.6133982"><ele>352.68</ele><time>2025-12-02T21:49:59.000Z</time></trkpt>
        <trkpt lat="28.6852847" lon="104.613366"><ele>352.77</ele><time>2025-12-02T21:50:07.000Z</time></trkpt>
        <trkpt lat="28.6851708" lon="104.6133504"><ele>353.07</ele><time>2025-12-02T21:50:13.000Z</time></trkpt>
        <trkpt lat="28.6850831" lon="104.6133019"><ele>355.4</ele><time>2025-12-02T21:50:20.000Z</time></trkpt>
        <trkpt lat="28.6850017" lon="104.6132303"><ele>356.11</ele><time>2025-12-02T21:50:28.000Z</time></trkpt>
        <trkpt lat="28.6849379" lon="104.613128"><ele>355.95</ele><time>2025-12-02T21:50:36.000Z</time></trkpt>
        <trkpt lat="28.6848915" lon="104.6130193"><ele>355.63</ele><time>2025-12-02T21:50:42.000Z</time></trkpt>
        <trkpt lat="28.6848781" lon="104.6129751"><ele>355.11</ele><time>2025-12-02T21:50:44.000Z</time></trkpt>
        <trkpt lat="28.6848166" lon="104.6129392"><ele>355.01</ele><time>2025-12-02T21:50:54.000Z</time></trkpt>
        <trkpt lat="28.6847094" lon="104.6129402"><ele>354.05</ele><time>2025-12-02T21:51:02.000Z</time></trkpt>
        <trkpt lat="28.6845918" lon="104.6129447"><ele>352.16</ele><time>2025-12-02T21:51:10.000Z</time></trkpt>
        <trkpt lat="28.6844792" lon="104.6129063"><ele>351.41</ele><time>2025-12-02T21:51:18.000Z</time></trkpt>
        <trkpt lat="28.6843783" lon="104.6128604"><ele>350.59</ele><time>2025-12-02T21:51:25.000Z</time></trkpt>
        <trkpt lat="28.6842889" lon="104.6128147"><ele>350.43</ele><time>2025-12-02T21:51:31.000Z</time></trkpt>
        <trkpt lat="28.684203" lon="104.6127698"><ele>350.72</ele><time>2025-12-02T21:51:37.000Z</time></trkpt>
        <trkpt lat="28.6841045" lon="104.6127191"><ele>350.65</ele><time>2025-12-02T21:51:43.000Z</time></trkpt>
        <trkpt lat="28.6840123" lon="104.61268"><ele>350.87</ele><time>2025-12-02T21:51:47.000Z</time></trkpt>
        <trkpt lat="28.6839235" lon="104.6126336"><ele>350.8</ele><time>2025-12-02T21:51:51.000Z</time></trkpt>
        <trkpt lat="28.6838366" lon="104.612578"><ele>350.59</ele><time>2025-12-02T21:51:55.000Z</time></trkpt>
        <trkpt lat="28.6837468" lon="104.6125253"><ele>350.61</ele><time>2025-12-02T21:51:59.000Z</time></trkpt>
        <trkpt lat="28.6836511" lon="104.6124781"><ele>350.28</ele><time>2025-12-02T21:52:03.000Z</time></trkpt>
        <trkpt lat="28.6835524" lon="104.6124632"><ele>349.4</ele><time>2025-12-02T21:52:07.000Z</time></trkpt>
        <trkpt lat="28.6834584" lon="104.6124741"><ele>348.67</ele><time>2025-12-02T21:52:11.000Z</time></trkpt>
        <trkpt lat="28.6833658" lon="104.6124929"><ele>347.88</ele><time>2025-12-02T21:52:15.000Z</time></trkpt>
        <trkpt lat="28.6832692" lon="104.6125213"><ele>346.55</ele><time>2025-12-02T21:52:21.000Z</time></trkpt>
        <trkpt lat="28.6831717" lon="104.6125534"><ele>345.63</ele><time>2025-12-02T21:52:29.000Z</time></trkpt>
        <trkpt lat="28.6831283" lon="104.6125827"><ele>345.67</ele><time>2025-12-02T21:52:35.000Z</time></trkpt>
        <trkpt lat="28.6830446" lon="104.6126008"><ele>345.83</ele><time>2025-12-02T21:52:45.000Z</time></trkpt>
        <trkpt lat="28.6829465" lon="104.6126301"><ele>345.17</ele><time>2025-12-02T21:52:53.000Z</time></trkpt>
        <trkpt lat="28.6828487" lon="104.6126789"><ele>344.39</ele><time>2025-12-02T21:53:01.000Z</time></trkpt>
        <trkpt lat="28.6827532" lon="104.6127393"><ele>343.43</ele><time>2025-12-02T21:53:09.000Z</time></trkpt>
        <trkpt lat="28.6826782" lon="104.6128235"><ele>342.43</ele><time>2025-12-02T21:53:17.000Z</time></trkpt>
        <trkpt lat="28.6826077" lon="104.6129135"><ele>342.53</ele><time>2025-12-02T21:53:25.000Z</time></trkpt>
        <trkpt lat="28.682541" lon="104.612991"><ele>343.65</ele><time>2025-12-02T21:53:31.000Z</time></trkpt>
        <trkpt lat="28.682469" lon="104.6130627"><ele>344.25</ele><time>2025-12-02T21:53:37.000Z</time></trkpt>
        <trkpt lat="28.6823994" lon="104.613131"><ele>344.27</ele><time>2025-12-02T21:53:43.000Z</time></trkpt>
        <trkpt lat="28.6823203" lon="104.6132001"><ele>344.05</ele><time>2025-12-02T21:53:50.000Z</time></trkpt>
        <trkpt lat="28.6822442" lon="104.6132668"><ele>344.36</ele><time>2025-12-02T21:53:56.000Z</time></trkpt>
        <trkpt lat="28.6821628" lon="104.6133225"><ele>344.44</ele><time>2025-12-02T21:54:02.000Z</time></trkpt>
        <trkpt lat="28.6820776" lon="104.6133683"><ele>344.67</ele><time>2025-12-02T21:54:11.000Z</time></trkpt>
        <trkpt lat="28.6819937" lon="104.6134215"><ele>345.12</ele><time>2025-12-02T21:54:19.000Z</time></trkpt>
        <trkpt lat="28.6819095" lon="104.6134849"><ele>344.34</ele><time>2025-12-02T21:54:27.000Z</time></trkpt>
        <trkpt lat="28.6818377" lon="104.6135668"><ele>343.63</ele><time>2025-12-02T21:54:35.000Z</time></trkpt>
        <trkpt lat="28.6817542" lon="104.6136533"><ele>342.7</ele><time>2025-12-02T21:54:43.000Z</time></trkpt>
        <trkpt lat="28.6816826" lon="104.6137296"><ele>341.9</ele><time>2025-12-02T21:54:49.000Z</time></trkpt>
        <trkpt lat="28.6816038" lon="104.6138066"><ele>341.61</ele><time>2025-12-02T21:54:57.000Z</time></trkpt>
        <trkpt lat="28.6815088" lon="104.6138179"><ele>342.07</ele><time>2025-12-02T21:55:11.000Z</time></trkpt>
        <trkpt lat="28.6814382" lon="104.6137521"><ele>341.98</ele><time>2025-12-02T21:55:19.000Z</time></trkpt>
        <trkpt lat="28.6813726" lon="104.6137332"><ele>341.88</ele><time>2025-12-02T21:55:27.000Z</time></trkpt>
        <trkpt lat="28.681296" lon="104.6136838"><ele>342.44</ele><time>2025-12-02T21:55:37.000Z</time></trkpt>
        <trkpt lat="28.6812151" lon="104.6136075"><ele>342.87</ele><time>2025-12-02T21:55:46.000Z</time></trkpt>
        <trkpt lat="28.6811326" lon="104.6135182"><ele>343.22</ele><time>2025-12-02T21:55:56.000Z</time></trkpt>
        <trkpt lat="28.6810476" lon="104.613439"><ele>344.15</ele><time>2025-12-02T21:56:02.000Z</time></trkpt>
        <trkpt lat="28.6809942" lon="104.6133743"><ele>344.27</ele><time>2025-12-02T21:56:10.000Z</time></trkpt>
        <trkpt lat="28.6809068" lon="104.6133485"><ele>344.44</ele><time>2025-12-02T21:56:38.000Z</time></trkpt>
        <trkpt lat="28.680836" lon="104.6132918"><ele>343.97</ele><time>2025-12-02T21:56:46.000Z</time></trkpt>
        <trkpt lat="28.6807663" lon="104.6132276"><ele>343.37</ele><time>2025-12-02T21:56:54.000Z</time></trkpt>
        <trkpt lat="28.680683" lon="104.613168"><ele>343.34</ele><time>2025-12-02T21:57:02.000Z</time></trkpt>
        <trkpt lat="28.68061" lon="104.6130884"><ele>343.43</ele><time>2025-12-02T21:57:10.000Z</time></trkpt>
        <trkpt lat="28.6805454" lon="104.6130098"><ele>343.47</ele><time>2025-12-02T21:57:17.000Z</time></trkpt>
        <trkpt lat="28.6804903" lon="104.6129128"><ele>343.77</ele><time>2025-12-02T21:57:25.000Z</time></trkpt>
        <trkpt lat="28.6804471" lon="104.6128099"><ele>344.11</ele><time>2025-12-02T21:57:33.000Z</time></trkpt>
        <trkpt lat="28.6804408" lon="104.612787"><ele>344.34</ele><time>2025-12-02T21:57:35.000Z</time></trkpt>
        <trkpt lat="28.6804778" lon="104.6128726"><ele>344.39</ele><time>2025-12-02T21:57:43.000Z</time></trkpt>
        <trkpt lat="28.680484" lon="104.6129898"><ele>343.87</ele><time>2025-12-02T21:57:51.000Z</time></trkpt>
        <trkpt lat="28.6804375" lon="104.6131037"><ele>343.34</ele><time>2025-12-02T21:57:59.000Z</time></trkpt>
        <trkpt lat="28.6803732" lon="104.6132055"><ele>342.71</ele><time>2025-12-02T21:58:07.000Z</time></trkpt>
        <trkpt lat="28.6802972" lon="104.6131798"><ele>342.39</ele><time>2025-12-02T21:58:15.000Z</time></trkpt>
        <trkpt lat="28.6802154" lon="104.6131206"><ele>342.44</ele><time>2025-12-02T21:58:23.000Z</time></trkpt>
        <trkpt lat="28.6801928" lon="104.6130934"><ele>342.37</ele><time>2025-12-02T21:58:25.000Z</time></trkpt>
        <trkpt lat="28.6801404" lon="104.6130278"><ele>342.25</ele><time>2025-12-02T21:58:37.000Z</time></trkpt>
        <trkpt lat="28.6800635" lon="104.6129697"><ele>342.06</ele><time>2025-12-02T21:58:46.000Z</time></trkpt>
        <trkpt lat="28.6799981" lon="104.6129572"><ele>342.07</ele><time>2025-12-02T21:58:52.000Z</time></trkpt>
        <trkpt lat="28.6799349" lon="104.6130291"><ele>341.71</ele><time>2025-12-02T21:59:16.000Z</time></trkpt>
        <trkpt lat="28.6798354" lon="104.6130673"><ele>341.29</ele><time>2025-12-02T21:59:26.000Z</time></trkpt>
        <trkpt lat="28.6797503" lon="104.613031"><ele>341.1</ele><time>2025-12-02T21:59:34.000Z</time></trkpt>
        <trkpt lat="28.6796971" lon="104.6129344"><ele>341.11</ele><time>2025-12-02T21:59:42.000Z</time></trkpt>
        <trkpt lat="28.6796523" lon="104.6128283"><ele>341.52</ele><time>2025-12-02T21:59:54.000Z</time></trkpt>
        <trkpt lat="28.6795663" lon="104.6128156"><ele>342.27</ele><time>2025-12-02T22:00:11.000Z</time></trkpt>
        <trkpt lat="28.6795358" lon="104.6128204"><ele>343.58</ele><time>2025-12-02T22:00:13.000Z</time></trkpt>
        <trkpt lat="28.6794606" lon="104.6128501"><ele>344.46</ele><time>2025-12-02T22:00:25.000Z</time></trkpt>
        <trkpt lat="28.6793686" lon="104.6129086"><ele>344.75</ele><time>2025-12-02T22:00:35.000Z</time></trkpt>
        <trkpt lat="28.6792954" lon="104.6129674"><ele>344.88</ele><time>2025-12-02T22:00:43.000Z</time></trkpt>
        <trkpt lat="28.6792657" lon="104.6130678"><ele>345.21</ele><time>2025-12-02T22:00:55.000Z</time></trkpt>
        <trkpt lat="28.6792617" lon="104.6131137"><ele>345.56</ele><time>2025-12-02T22:00:59.000Z</time></trkpt>
        <trkpt lat="28.6793107" lon="104.6131822"><ele>345.93</ele><time>2025-12-02T22:01:15.000Z</time></trkpt>
        <trkpt lat="28.6792608" lon="104.6131774"><ele>346.3</ele><time>2025-12-02T22:01:35.000Z</time></trkpt>
        <trkpt lat="28.6791938" lon="104.6130943"><ele>347.95</ele><time>2025-12-02T22:01:45.000Z</time></trkpt>
        <trkpt lat="28.679101" lon="104.6130934"><ele>349.26</ele><time>2025-12-02T22:02:07.000Z</time></trkpt>
        <trkpt lat="28.6789957" lon="104.6131064"><ele>350.65</ele><time>2025-12-02T22:02:19.000Z</time></trkpt>
        <trkpt lat="28.6789181" lon="104.6131762"><ele>352.77</ele><time>2025-12-02T22:02:29.000Z</time></trkpt>
        <trkpt lat="28.6788681" lon="104.6132733"><ele>354.03</ele><time>2025-12-02T22:02:37.000Z</time></trkpt>
        <trkpt lat="28.6788197" lon="104.6133773"><ele>355.03</ele><time>2025-12-02T22:02:45.000Z</time></trkpt>
        <trkpt lat="28.6787508" lon="104.6134489"><ele>355.04</ele><time>2025-12-02T22:02:55.000Z</time></trkpt>
        <trkpt lat="28.6786573" lon="104.6134391"><ele>354.36</ele><time>2025-12-02T22:03:07.000Z</time></trkpt>
        <trkpt lat="28.6786277" lon="104.6134269"><ele>353.37</ele><time>2025-12-02T22:03:09.000Z</time></trkpt>
        <trkpt lat="28.6785468" lon="104.6133994"><ele>353</ele><time>2025-12-02T22:03:21.000Z</time></trkpt>
        <trkpt lat="28.6784758" lon="104.6133313"><ele>351.36</ele><time>2025-12-02T22:03:30.000Z</time></trkpt>
        <trkpt lat="28.6784524" lon="104.6132247"><ele>350.7</ele><time>2025-12-02T22:03:48.000Z</time></trkpt>
        <trkpt lat="28.6784259" lon="104.6131193"><ele>351.97</ele><time>2025-12-02T22:04:00.000Z</time></trkpt>
        <trkpt lat="28.6783741" lon="104.6130294"><ele>351.72</ele><time>2025-12-02T22:04:10.000Z</time></trkpt>
        <trkpt lat="28.6783352" lon="104.6129673"><ele>351.76</ele><time>2025-12-02T22:04:20.000Z</time></trkpt>
        <trkpt lat="28.6782576" lon="104.6129919"><ele>351.56</ele><time>2025-12-02T22:04:46.000Z</time></trkpt>
        <trkpt lat="28.6781961" lon="104.6130778"><ele>351.67</ele><time>2025-12-02T22:04:56.000Z</time></trkpt>
        <trkpt lat="28.6781709" lon="104.6131951"><ele>352.71</ele><time>2025-12-02T22:05:05.000Z</time></trkpt>
        <trkpt lat="28.678193" lon="104.6133142"><ele>355.24</ele><time>2025-12-02T22:05:15.000Z</time></trkpt>
        <trkpt lat="28.6782079" lon="104.6134447"><ele>357.84</ele><time>2025-12-02T22:05:39.000Z</time></trkpt>
        <trkpt lat="28.6781899" lon="104.613398"><ele>359.27</ele><time>2025-12-02T22:05:55.000Z</time></trkpt>
        <trkpt lat="28.6781858" lon="104.613281"><ele>360.45</ele><time>2025-12-02T22:06:13.000Z</time></trkpt>
        <trkpt lat="28.6781825" lon="104.6131453"><ele>360.84</ele><time>2025-12-02T22:06:27.000Z</time></trkpt>
        <trkpt lat="28.6782183" lon="104.6130227"><ele>362.1</ele><time>2025-12-02T22:06:35.000Z</time></trkpt>
        <trkpt lat="28.6781678" lon="104.6130229"><ele>362.56</ele><time>2025-12-02T22:06:51.000Z</time></trkpt>
        <trkpt lat="28.6780768" lon="104.6130367"><ele>364.2</ele><time>2025-12-02T22:07:11.000Z</time></trkpt>
        <trkpt lat="28.6779761" lon="104.6130376"><ele>362.63</ele><time>2025-12-02T22:07:21.000Z</time></trkpt>
        <trkpt lat="28.6778738" lon="104.6130295"><ele>359.69</ele><time>2025-12-02T22:07:29.000Z</time></trkpt>
        <trkpt lat="28.6777702" lon="104.6129983"><ele>357</ele><time>2025-12-02T22:07:37.000Z</time></trkpt>
        <trkpt lat="28.677688" lon="104.6129252"><ele>355.41</ele><time>2025-12-02T22:07:45.000Z</time></trkpt>
        <trkpt lat="28.6776501" lon="104.6128191"><ele>353.99</ele><time>2025-12-02T22:07:53.000Z</time></trkpt>
        <trkpt lat="28.6775933" lon="104.6127184"><ele>352.03</ele><time>2025-12-02T22:08:03.000Z</time></trkpt>
        <trkpt lat="28.6775262" lon="104.6126176"><ele>350.06</ele><time>2025-12-02T22:08:13.000Z</time></trkpt>
        <trkpt lat="28.6774317" lon="104.6125922"><ele>348.92</ele><time>2025-12-02T22:08:25.000Z</time></trkpt>
        <trkpt lat="28.6773655" lon="104.6126636"><ele>348.81</ele><time>2025-12-02T22:08:35.000Z</time></trkpt>
        <trkpt lat="28.6773026" lon="104.6127703"><ele>350.03</ele><time>2025-12-02T22:08:51.000Z</time></trkpt>
        <trkpt lat="28.6772417" lon="104.6128768"><ele>351.46</ele><time>2025-12-02T22:09:05.000Z</time></trkpt>
        <trkpt lat="28.6771447" lon="104.6128959"><ele>355.49</ele><time>2025-12-02T22:09:15.000Z</time></trkpt>
        <trkpt lat="28.6770384" lon="104.6128625"><ele>357.86</ele><time>2025-12-02T22:09:23.000Z</time></trkpt>
        <trkpt lat="28.6769404" lon="104.6128113"><ele>359.65</ele><time>2025-12-02T22:09:31.000Z</time></trkpt>
        <trkpt lat="28.6768428" lon="104.6128229"><ele>360.13</ele><time>2025-12-02T22:09:39.000Z</time></trkpt>
        <trkpt lat="28.6767548" lon="104.6128603"><ele>360.9</ele><time>2025-12-02T22:09:47.000Z</time></trkpt>
        <trkpt lat="28.6766643" lon="104.6128797"><ele>361.41</ele><time>2025-12-02T22:09:55.000Z</time></trkpt>
        <trkpt lat="28.6765723" lon="104.6128713"><ele>362.42</ele><time>2025-12-02T22:10:04.000Z</time></trkpt>
        <trkpt lat="28.6764936" lon="104.6128134"><ele>364.73</ele><time>2025-12-02T22:10:12.000Z</time></trkpt>
        <trkpt lat="28.6764068" lon="104.6127473"><ele>366.95</ele><time>2025-12-02T22:10:20.000Z</time></trkpt>
        <trkpt lat="28.6763148" lon="104.6127342"><ele>368</ele><time>2025-12-02T22:10:28.000Z</time></trkpt>
        <trkpt lat="28.6762475" lon="104.6127673"><ele>369.44</ele><time>2025-12-02T22:10:36.000Z</time></trkpt>
        <trkpt lat="28.6762038" lon="104.612858"><ele>370.43</ele><time>2025-12-02T22:10:48.000Z</time></trkpt>
        <trkpt lat="28.6761787" lon="104.6129787"><ele>371.61</ele><time>2025-12-02T22:11:00.000Z</time></trkpt>
        <trkpt lat="28.6761764" lon="104.6131059"><ele>373.81</ele><time>2025-12-02T22:11:12.000Z</time></trkpt>
        <trkpt lat="28.6761324" lon="104.6132178"><ele>375.8</ele><time>2025-12-02T22:11:26.000Z</time></trkpt>
        <trkpt lat="28.6760963" lon="104.6133211"><ele>378.25</ele><time>2025-12-02T22:11:38.000Z</time></trkpt>
        <trkpt lat="28.6761453" lon="104.6133858"><ele>382.33</ele><time>2025-12-02T22:11:56.000Z</time></trkpt>
        <trkpt lat="28.6761685" lon="104.6134783"><ele>384.72</ele><time>2025-12-02T22:12:06.000Z</time></trkpt>
        <trkpt lat="28.6761857" lon="104.6135799"><ele>386.03</ele><time>2025-12-02T22:12:24.000Z</time></trkpt>
        <trkpt lat="28.6762352" lon="104.6136766"><ele>387.01</ele><time>2025-12-02T22:12:34.000Z</time></trkpt>
        <trkpt lat="28.6762106" lon="104.6136254"><ele>387.89</ele><time>2025-12-02T22:12:48.000Z</time></trkpt>
        <trkpt lat="28.6761821" lon="104.613511"><ele>388.41</ele><time>2025-12-02T22:12:56.000Z</time></trkpt>
        <trkpt lat="28.676157" lon="104.6133866"><ele>388.47</ele><time>2025-12-02T22:13:04.000Z</time></trkpt>
        <trkpt lat="28.6760702" lon="104.6133485"><ele>387.81</ele><time>2025-12-02T22:13:16.000Z</time></trkpt>
        <trkpt lat="28.6759658" lon="104.6133718"><ele>388.15</ele><time>2025-12-02T22:13:26.000Z</time></trkpt>
        <trkpt lat="28.6759095" lon="104.6133848"><ele>387.72</ele><time>2025-12-02T22:13:30.000Z</time></trkpt>
        <trkpt lat="28.6759679" lon="104.6133769"><ele>387.67</ele><time>2025-12-02T22:13:54.000Z</time></trkpt>
        <trkpt lat="28.675954" lon="104.6134372"><ele>387.19</ele><time>2025-12-02T22:14:14.000Z</time></trkpt>
        <trkpt lat="28.6758789" lon="104.61349"><ele>387.43</ele><time>2025-12-02T22:14:26.000Z</time></trkpt>
        <trkpt lat="28.6757852" lon="104.6135424"><ele>388.32</ele><time>2025-12-02T22:14:38.000Z</time></trkpt>
        <trkpt lat="28.675687" lon="104.6135908"><ele>390.36</ele><time>2025-12-02T22:14:50.000Z</time></trkpt>
        <trkpt lat="28.6756011" lon="104.6136594"><ele>392.53</ele><time>2025-12-02T22:15:07.000Z</time></trkpt>
        <trkpt lat="28.6755716" lon="104.6137649"><ele>396.26</ele><time>2025-12-02T22:15:23.000Z</time></trkpt>
        <trkpt lat="28.675534" lon="104.6138753"><ele>399.93</ele><time>2025-12-02T22:15:37.000Z</time></trkpt>
        <trkpt lat="28.6755048" lon="104.6139843"><ele>402.18</ele><time>2025-12-02T22:15:53.000Z</time></trkpt>
        <trkpt lat="28.6754941" lon="104.6140954"><ele>404.66</ele><time>2025-12-02T22:16:13.000Z</time></trkpt>
        <trkpt lat="28.6754965" lon="104.6141662"><ele>405.43</ele><time>2025-12-02T22:16:25.000Z</time></trkpt>
        <trkpt lat="28.6754463" lon="104.6142311"><ele>406.44</ele><time>2025-12-02T22:16:50.000Z</time></trkpt>
        <trkpt lat="28.6753592" lon="104.6142503"><ele>410.06</ele><time>2025-12-02T22:17:06.000Z</time></trkpt>
        <trkpt lat="28.675249" lon="104.6142546"><ele>413.35</ele><time>2025-12-02T22:17:25.000Z</time></trkpt>
        <trkpt lat="28.6751451" lon="104.6142477"><ele>416.29</ele><time>2025-12-02T22:17:35.000Z</time></trkpt>
        <trkpt lat="28.6750433" lon="104.6142611"><ele>419</ele><time>2025-12-02T22:17:49.000Z</time></trkpt>
        <trkpt lat="28.6749459" lon="104.6142713"><ele>422.28</ele><time>2025-12-02T22:18:07.000Z</time></trkpt>
        <trkpt lat="28.6748468" lon="104.6142683"><ele>425.44</ele><time>2025-12-02T22:18:17.000Z</time></trkpt>
        <trkpt lat="28.6748416" lon="104.614277"><ele>427.71</ele><time>2025-12-02T22:18:41.000Z</time></trkpt>
        <trkpt lat="28.6747844" lon="104.6143046"><ele>428.97</ele><time>2025-12-02T22:18:55.000Z</time></trkpt>
        <trkpt lat="28.6746949" lon="104.6143197"><ele>431.32</ele><time>2025-12-02T22:19:09.000Z</time></trkpt>
        <trkpt lat="28.6745951" lon="104.6143276"><ele>433.35</ele><time>2025-12-02T22:19:25.000Z</time></trkpt>
        <trkpt lat="28.6744938" lon="104.6143201"><ele>438.43</ele><time>2025-12-02T22:19:43.000Z</time></trkpt>
        <trkpt lat="28.6743984" lon="104.6143233"><ele>443.24</ele><time>2025-12-02T22:19:57.000Z</time></trkpt>
        <trkpt lat="28.674305" lon="104.6143479"><ele>448.36</ele><time>2025-12-02T22:20:11.000Z</time></trkpt>
        <trkpt lat="28.674222" lon="104.6143935"><ele>453.5</ele><time>2025-12-02T22:20:23.000Z</time></trkpt>
        <trkpt lat="28.6741478" lon="104.6144555"><ele>455.85</ele><time>2025-12-02T22:20:39.000Z</time></trkpt>
        <trkpt lat="28.6740705" lon="104.614525"><ele>457.85</ele><time>2025-12-02T22:20:55.000Z</time></trkpt>
        <trkpt lat="28.6739878" lon="104.614578"><ele>461.04</ele><time>2025-12-02T22:21:07.000Z</time></trkpt>
        <trkpt lat="28.6739205" lon="104.6146499"><ele>462.29</ele><time>2025-12-02T22:21:21.000Z</time></trkpt>
        <trkpt lat="28.6738708" lon="104.6147368"><ele>464.12</ele><time>2025-12-02T22:21:43.000Z</time></trkpt>
        <trkpt lat="28.673786" lon="104.6147669"><ele>466.7</ele><time>2025-12-02T22:23:11.000Z</time></trkpt>
        <trkpt lat="28.6737111" lon="104.6148382"><ele>470.06</ele><time>2025-12-02T22:23:35.000Z</time></trkpt>
        <trkpt lat="28.6736233" lon="104.6148798"><ele>471.41</ele><time>2025-12-02T22:23:59.000Z</time></trkpt>
        <trkpt lat="28.6735987" lon="104.61497"><ele>473.52</ele><time>2025-12-02T22:24:49.000Z</time></trkpt>
        <trkpt lat="28.6735519" lon="104.6150615"><ele>474.03</ele><time>2025-12-02T22:25:09.000Z</time></trkpt>
        <trkpt lat="28.6735136" lon="104.6151169"><ele>473.47</ele><time>2025-12-02T22:25:27.000Z</time></trkpt>
        <trkpt lat="28.6734501" lon="104.615175"><ele>474.2</ele><time>2025-12-02T22:26:04.000Z</time></trkpt>
        <trkpt lat="28.673375" lon="104.6152343"><ele>475.85</ele><time>2025-12-02T22:26:43.000Z</time></trkpt>
        <trkpt lat="28.6733184" lon="104.6153239"><ele>477.58</ele><time>2025-12-02T22:28:11.000Z</time></trkpt>
        <trkpt lat="28.6732693" lon="104.6154111"><ele>482.33</ele><time>2025-12-02T22:28:35.000Z</time></trkpt>
        <trkpt lat="28.6732142" lon="104.6155003"><ele>486.15</ele><time>2025-12-02T22:28:59.000Z</time></trkpt>
        <trkpt lat="28.6731591" lon="104.6155941"><ele>488.89</ele><time>2025-12-02T22:29:23.000Z</time></trkpt>
        <trkpt lat="28.6730949" lon="104.6156714"><ele>491.92</ele><time>2025-12-02T22:30:13.000Z</time></trkpt>
        <trkpt lat="28.6730279" lon="104.6157477"><ele>494.85</ele><time>2025-12-02T22:30:53.000Z</time></trkpt>
        <trkpt lat="28.6729507" lon="104.6158188"><ele>496.89</ele><time>2025-12-02T22:31:31.000Z</time></trkpt>
        <trkpt lat="28.6728889" lon="104.6159056"><ele>499.1</ele><time>2025-12-02T22:32:01.000Z</time></trkpt>
        <trkpt lat="28.6728213" lon="104.6159764"><ele>501.26</ele><time>2025-12-02T22:32:23.000Z</time></trkpt>
        <trkpt lat="28.6728053" lon="104.6160799"><ele>503.15</ele><time>2025-12-02T22:33:09.000Z</time></trkpt>
        <trkpt lat="28.6728014" lon="104.6161275"><ele>505.51</ele><time>2025-12-02T22:33:17.000Z</time></trkpt>
        <trkpt lat="28.6727597" lon="104.6161919"><ele>505.98</ele><time>2025-12-02T22:33:43.000Z</time></trkpt>
        <trkpt lat="28.6727135" lon="104.6162815"><ele>505.39</ele><time>2025-12-02T22:34:03.000Z</time></trkpt>
        <trkpt lat="28.6726843" lon="104.6163837"><ele>504.8</ele><time>2025-12-02T22:34:33.000Z</time></trkpt>
        <trkpt lat="28.6726389" lon="104.6164805"><ele>505.77</ele><time>2025-12-02T22:35:30.000Z</time></trkpt>
        <trkpt lat="28.6726071" lon="104.6165892"><ele>508.08</ele><time>2025-12-02T22:35:56.000Z</time></trkpt>
        <trkpt lat="28.6726036" lon="104.616701"><ele>510.84</ele><time>2025-12-02T22:36:08.000Z</time></trkpt>
        <trkpt lat="28.6726114" lon="104.6168152"><ele>512.41</ele><time>2025-12-02T22:36:24.000Z</time></trkpt>
        <trkpt lat="28.6725786" lon="104.6169096"><ele>512.62</ele><time>2025-12-02T22:36:36.000Z</time></trkpt>
        <trkpt lat="28.6725025" lon="104.6169613"><ele>512.3</ele><time>2025-12-02T22:36:48.000Z</time></trkpt>
        <trkpt lat="28.6724023" lon="104.6169718"><ele>511.79</ele><time>2025-12-02T22:37:00.000Z</time></trkpt>
        <trkpt lat="28.6723068" lon="104.6169992"><ele>511.82</ele><time>2025-12-02T22:37:12.000Z</time></trkpt>
        <trkpt lat="28.6723499" lon="104.6169668"><ele>512.09</ele><time>2025-12-02T22:37:50.000Z</time></trkpt>
        <trkpt lat="28.6724444" lon="104.6169575"><ele>512.12</ele><time>2025-12-02T22:38:00.000Z</time></trkpt>
        <trkpt lat="28.6724314" lon="104.6170054"><ele>513.29</ele><time>2025-12-02T22:38:08.000Z</time></trkpt>
        <trkpt lat="28.6724308" lon="104.6171051"><ele>512.12</ele><time>2025-12-02T22:38:34.000Z</time></trkpt>
        <trkpt lat="28.6724857" lon="104.6171849"><ele>513.67</ele><time>2025-12-02T22:39:04.000Z</time></trkpt>
        <trkpt lat="28.6724484" lon="104.6172593"><ele>516.8</ele><time>2025-12-02T22:39:22.000Z</time></trkpt>
        <trkpt lat="28.672394" lon="104.6173449"><ele>518.16</ele><time>2025-12-02T22:39:48.000Z</time></trkpt>
        <trkpt lat="28.6724185" lon="104.6172523"><ele>520.68</ele><time>2025-12-02T22:40:48.000Z</time></trkpt>
        <trkpt lat="28.6725044" lon="104.6171989"><ele>521.05</ele><time>2025-12-02T22:41:14.000Z</time></trkpt>
        <trkpt lat="28.6725652" lon="104.6172597"><ele>522.1</ele><time>2025-12-02T22:41:36.000Z</time></trkpt>
        <trkpt lat="28.6726408" lon="104.6173204"><ele>523.78</ele><time>2025-12-02T22:41:52.000Z</time></trkpt>
        <trkpt lat="28.6727272" lon="104.617386"><ele>525.75</ele><time>2025-12-02T22:42:04.000Z</time></trkpt>
        <trkpt lat="28.6728218" lon="104.6174105"><ele>528.26</ele><time>2025-12-02T22:42:14.000Z</time></trkpt>
        <trkpt lat="28.6729146" lon="104.6174428"><ele>530.76</ele><time>2025-12-02T22:42:25.000Z</time></trkpt>
        <trkpt lat="28.6730001" lon="104.617483"><ele>533.21</ele><time>2025-12-02T22:42:37.000Z</time></trkpt>
        <trkpt lat="28.6730948" lon="104.6175059"><ele>535.68</ele><time>2025-12-02T22:42:55.000Z</time></trkpt>
        <trkpt lat="28.6732003" lon="104.6174921"><ele>536.7</ele><time>2025-12-02T22:43:05.000Z</time></trkpt>
        <trkpt lat="28.6732839" lon="104.6174314"><ele>537.87</ele><time>2025-12-02T22:43:13.000Z</time></trkpt>
        <trkpt lat="28.6733306" lon="104.6173148"><ele>538.65</ele><time>2025-12-02T22:43:21.000Z</time></trkpt>
        <trkpt lat="28.6733787" lon="104.6172144"><ele>539.95</ele><time>2025-12-02T22:43:29.000Z</time></trkpt>
        <trkpt lat="28.673437" lon="104.6171029"><ele>542.48</ele><time>2025-12-02T22:43:37.000Z</time></trkpt>
        <trkpt lat="28.6734885" lon="104.616994"><ele>544.18</ele><time>2025-12-02T22:43:45.000Z</time></trkpt>
        <trkpt lat="28.6735705" lon="104.6169367"><ele>546.71</ele><time>2025-12-02T22:43:55.000Z</time></trkpt>
        <trkpt lat="28.6736666" lon="104.6169148"><ele>549.3</ele><time>2025-12-02T22:44:09.000Z</time></trkpt>
        <trkpt lat="28.6737693" lon="104.6169114"><ele>551.44</ele><time>2025-12-02T22:44:18.000Z</time></trkpt>
        <trkpt lat="28.6738752" lon="104.6169025"><ele>553.18</ele><time>2025-12-02T22:44:26.000Z</time></trkpt>
        <trkpt lat="28.6739742" lon="104.6168878"><ele>554.28</ele><time>2025-12-02T22:44:32.000Z</time></trkpt>
        <trkpt lat="28.6740846" lon="104.6168625"><ele>554.85</ele><time>2025-12-02T22:44:40.000Z</time></trkpt>
        <trkpt lat="28.674192" lon="104.6168494"><ele>556.34</ele><time>2025-12-02T22:44:48.000Z</time></trkpt>
        <trkpt lat="28.6742881" lon="104.6167907"><ele>558.1</ele><time>2025-12-02T22:44:58.000Z</time></trkpt>
        <trkpt lat="28.674352" lon="104.6167568"><ele>560.03</ele><time>2025-12-02T22:45:04.000Z</time></trkpt>
        <trkpt lat="28.6743014" lon="104.6168043"><ele>561.13</ele><time>2025-12-02T22:45:26.000Z</time></trkpt>
        <trkpt lat="28.6742038" lon="104.6168741"><ele>560.24</ele><time>2025-12-02T22:45:44.000Z</time></trkpt>
        <trkpt lat="28.6740837" lon="104.6169137"><ele>557.99</ele><time>2025-12-02T22:45:54.000Z</time></trkpt>
        <trkpt lat="28.6739642" lon="104.6169309"><ele>557.03</ele><time>2025-12-02T22:46:04.000Z</time></trkpt>
        <trkpt lat="28.6740047" lon="104.6169165"><ele>557.08</ele><time>2025-12-02T22:46:30.000Z</time></trkpt>
        <trkpt lat="28.6741097" lon="104.616902"><ele>555.37</ele><time>2025-12-02T22:46:40.000Z</time></trkpt>
        <trkpt lat="28.6742014" lon="104.616915"><ele>554.28</ele><time>2025-12-02T22:46:48.000Z</time></trkpt>
        <trkpt lat="28.6742782" lon="104.6168398"><ele>553.6</ele><time>2025-12-02T22:47:02.000Z</time></trkpt>
        <trkpt lat="28.6743243" lon="104.6167917"><ele>554.96</ele><time>2025-12-02T22:47:08.000Z</time></trkpt>
        <trkpt lat="28.6744122" lon="104.6167587"><ele>555.63</ele><time>2025-12-02T22:48:10.000Z</time></trkpt>
        <trkpt lat="28.6745143" lon="104.6167508"><ele>555.55</ele><time>2025-12-02T22:48:20.000Z</time></trkpt>
        <trkpt lat="28.67461" lon="104.6167109"><ele>556.23</ele><time>2025-12-02T22:48:38.000Z</time></trkpt>
        <trkpt lat="28.6746868" lon="104.6166317"><ele>557.02</ele><time>2025-12-02T22:48:48.000Z</time></trkpt>
        <trkpt lat="28.6747666" lon="104.6166478"><ele>557.04</ele><time>2025-12-02T22:48:58.000Z</time></trkpt>
        <trkpt lat="28.6748518" lon="104.6166385"><ele>557.2</ele><time>2025-12-02T22:49:12.000Z</time></trkpt>
        <trkpt lat="28.6749303" lon="104.6165907"><ele>556.77</ele><time>2025-12-02T22:49:20.000Z</time></trkpt>
        <trkpt lat="28.6750163" lon="104.6165932"><ele>556.93</ele><time>2025-12-02T22:49:28.000Z</time></trkpt>
        <trkpt lat="28.6750984" lon="104.6166397"><ele>557.49</ele><time>2025-12-02T22:49:36.000Z</time></trkpt>
        <trkpt lat="28.6751669" lon="104.6167169"><ele>558.4</ele><time>2025-12-02T22:49:44.000Z</time></trkpt>
        <trkpt lat="28.6752299" lon="104.6168045"><ele>559.19</ele><time>2025-12-02T22:49:52.000Z</time></trkpt>
        <trkpt lat="28.6752588" lon="104.6169202"><ele>559.32</ele><time>2025-12-02T22:50:00.000Z</time></trkpt>
        <trkpt lat="28.6752501" lon="104.6170407"><ele>559.46</ele><time>2025-12-02T22:50:06.000Z</time></trkpt>
        <trkpt lat="28.6752367" lon="104.6171851"><ele>559.51</ele><time>2025-12-02T22:50:13.000Z</time></trkpt>
        <trkpt lat="28.675211" lon="104.6173148"><ele>560.54</ele><time>2025-12-02T22:50:17.000Z</time></trkpt>
        <trkpt lat="28.6751911" lon="104.6174287"><ele>560.07</ele><time>2025-12-02T22:50:21.000Z</time></trkpt>
        <trkpt lat="28.6751823" lon="104.6175505"><ele>559.15</ele><time>2025-12-02T22:50:27.000Z</time></trkpt>
        <trkpt lat="28.6751735" lon="104.6176094"><ele>558.5</ele><time>2025-12-02T22:50:33.000Z</time></trkpt>
        <trkpt lat="28.6752264" lon="104.6176643"><ele>558.3</ele><time>2025-12-02T22:50:45.000Z</time></trkpt>
        <trkpt lat="28.6752784" lon="104.6177444"><ele>559.13</ele><time>2025-12-02T22:50:59.000Z</time></trkpt>
        <trkpt lat="28.6753488" lon="104.6178569"><ele>559.98</ele><time>2025-12-02T22:51:07.000Z</time></trkpt>
        <trkpt lat="28.675427" lon="104.617966"><ele>561.36</ele><time>2025-12-02T22:51:13.000Z</time></trkpt>
        <trkpt lat="28.6755057" lon="104.6180744"><ele>562.77</ele><time>2025-12-02T22:51:19.000Z</time></trkpt>
        <trkpt lat="28.6755982" lon="104.6181645"><ele>564.67</ele><time>2025-12-02T22:51:25.000Z</time></trkpt>
        <trkpt lat="28.6756979" lon="104.6181697"><ele>567.36</ele><time>2025-12-02T22:51:33.000Z</time></trkpt>
        <trkpt lat="28.6757904" lon="104.6181267"><ele>570.06</ele><time>2025-12-02T22:51:43.000Z</time></trkpt>
        <trkpt lat="28.6758865" lon="104.6181078"><ele>573.34</ele><time>2025-12-02T22:51:53.000Z</time></trkpt>
        <trkpt lat="28.6759528" lon="104.6181713"><ele>574.66</ele><time>2025-12-02T22:52:01.000Z</time></trkpt>
        <trkpt lat="28.6759965" lon="104.6182639"><ele>574.73</ele><time>2025-12-02T22:52:09.000Z</time></trkpt>
        <trkpt lat="28.6760715" lon="104.6182885"><ele>574.7</ele><time>2025-12-02T22:52:17.000Z</time></trkpt>
        <trkpt lat="28.6761548" lon="104.6183358"><ele>575.31</ele><time>2025-12-02T22:52:27.000Z</time></trkpt>
        <trkpt lat="28.6762461" lon="104.6183774"><ele>577.14</ele><time>2025-12-02T22:52:37.000Z</time></trkpt>
        <trkpt lat="28.676347" lon="104.6184152"><ele>579.6</ele><time>2025-12-02T22:52:47.000Z</time></trkpt>
        <trkpt lat="28.6764557" lon="104.6184361"><ele>582.42</ele><time>2025-12-02T22:52:57.000Z</time></trkpt>
        <trkpt lat="28.6765306" lon="104.6185051"><ele>583.64</ele><time>2025-12-02T22:53:05.000Z</time></trkpt>
        <trkpt lat="28.676615" lon="104.6185636"><ele>584.54</ele><time>2025-12-02T22:53:15.000Z</time></trkpt>
        <trkpt lat="28.6767028" lon="104.6185986"><ele>585.3</ele><time>2025-12-02T22:53:23.000Z</time></trkpt>
        <trkpt lat="28.6767951" lon="104.6186421"><ele>586.41</ele><time>2025-12-02T22:53:31.000Z</time></trkpt>
        <trkpt lat="28.6768946" lon="104.6186618"><ele>588.06</ele><time>2025-12-02T22:53:39.000Z</time></trkpt>
        <trkpt lat="28.6769977" lon="104.6186778"><ele>589.91</ele><time>2025-12-02T22:53:47.000Z</time></trkpt>
        <trkpt lat="28.677096" lon="104.6186883"><ele>591.84</ele><time>2025-12-02T22:53:55.000Z</time></trkpt>
        <trkpt lat="28.6771995" lon="104.6186972"><ele>593.74</ele><time>2025-12-02T22:54:03.000Z</time></trkpt>
        <trkpt lat="28.6772945" lon="104.6187261"><ele>596.12</ele><time>2025-12-02T22:54:11.000Z</time></trkpt>
        <trkpt lat="28.6773921" lon="104.6187457"><ele>598.23</ele><time>2025-12-02T22:54:21.000Z</time></trkpt>
        <trkpt lat="28.6774729" lon="104.6187079"><ele>597.41</ele><time>2025-12-02T22:54:29.000Z</time></trkpt>
        <trkpt lat="28.6775466" lon="104.618629"><ele>595.75</ele><time>2025-12-02T22:54:37.000Z</time></trkpt>
        <trkpt lat="28.6776164" lon="104.6185477"><ele>594.5</ele><time>2025-12-02T22:54:45.000Z</time></trkpt>
        <trkpt lat="28.6776618" lon="104.6185198"><ele>594.32</ele><time>2025-12-02T22:54:49.000Z</time></trkpt>
        <trkpt lat="28.6777301" lon="104.6184736"><ele>594.58</ele><time>2025-12-02T22:55:04.000Z</time></trkpt>
        <trkpt lat="28.6777658" lon="104.6184466"><ele>593.95</ele><time>2025-12-02T22:55:10.000Z</time></trkpt>
        <trkpt lat="28.6777826" lon="104.6185221"><ele>593.64</ele><time>2025-12-02T22:55:28.000Z</time></trkpt>
        <trkpt lat="28.6778055" lon="104.6186363"><ele>592.73</ele><time>2025-12-02T22:55:36.000Z</time></trkpt>
        <trkpt lat="28.6778281" lon="104.6187532"><ele>592.27</ele><time>2025-12-02T22:55:44.000Z</time></trkpt>
        <trkpt lat="28.6778694" lon="104.6188038"><ele>591.69</ele><time>2025-12-02T22:55:54.000Z</time></trkpt>
        <trkpt lat="28.6778234" lon="104.6187714"><ele>591.79</ele><time>2025-12-02T22:56:40.000Z</time></trkpt>
        <trkpt lat="28.6777312" lon="104.6186591"><ele>591.09</ele><time>2025-12-02T23:01:02.000Z</time></trkpt>
        <trkpt lat="28.6777086" lon="104.6185522"><ele>591.3</ele><time>2025-12-02T23:01:28.000Z</time></trkpt>
        <trkpt lat="28.6776172" lon="104.6185491"><ele>590.98</ele><time>2025-12-02T23:01:44.000Z</time></trkpt>
        <trkpt lat="28.6775378" lon="104.6186201"><ele>590.04</ele><time>2025-12-02T23:01:52.000Z</time></trkpt>
        <trkpt lat="28.6774651" lon="104.618704"><ele>589.66</ele><time>2025-12-02T23:02:00.000Z</time></trkpt>
        <trkpt lat="28.6775164" lon="104.618769"><ele>589.89</ele><time>2025-12-02T23:02:28.000Z</time></trkpt>
        <trkpt lat="28.6775385" lon="104.6187704"><ele>589.28</ele><time>2025-12-02T23:02:32.000Z</time></trkpt>
        <trkpt lat="28.6775917" lon="104.6188285"><ele>589.04</ele><time>2025-12-02T23:02:52.000Z</time></trkpt>
        <trkpt lat="28.6776462" lon="104.6189213"><ele>588</ele><time>2025-12-02T23:03:00.000Z</time></trkpt>
        <trkpt lat="28.6776761" lon="104.6190424"><ele>586.93</ele><time>2025-12-02T23:03:10.000Z</time></trkpt>
        <trkpt lat="28.6776562" lon="104.6191606"><ele>585.9</ele><time>2025-12-02T23:03:20.000Z</time></trkpt>
        <trkpt lat="28.6776168" lon="104.6192512"><ele>584.91</ele><time>2025-12-02T23:03:30.000Z</time></trkpt>
        <trkpt lat="28.6775524" lon="104.6193273"><ele>584.07</ele><time>2025-12-02T23:03:40.000Z</time></trkpt>
        <trkpt lat="28.6774923" lon="104.6194175"><ele>582.8</ele><time>2025-12-02T23:03:50.000Z</time></trkpt>
        <trkpt lat="28.6774479" lon="104.6195156"><ele>581.17</ele><time>2025-12-02T23:04:01.000Z</time></trkpt>
        <trkpt lat="28.67743" lon="104.6196289"><ele>579.13</ele><time>2025-12-02T23:04:13.000Z</time></trkpt>
        <trkpt lat="28.6774346" lon="104.6197475"><ele>577.04</ele><time>2025-12-02T23:04:23.000Z</time></trkpt>
        <trkpt lat="28.6774264" lon="104.6198585"><ele>575.86</ele><time>2025-12-02T23:04:35.000Z</time></trkpt>
        <trkpt lat="28.6774706" lon="104.6199566"><ele>576.01</ele><time>2025-12-02T23:04:47.000Z</time></trkpt>
        <trkpt lat="28.6775644" lon="104.6199603"><ele>576.68</ele><time>2025-12-02T23:04:59.000Z</time></trkpt>
        <trkpt lat="28.677663" lon="104.6199167"><ele>576.52</ele><time>2025-12-02T23:05:08.000Z</time></trkpt>
        <trkpt lat="28.6777653" lon="104.6198689"><ele>576.15</ele><time>2025-12-02T23:05:18.000Z</time></trkpt>
        <trkpt lat="28.677866" lon="104.6198458"><ele>575.33</ele><time>2025-12-02T23:05:30.000Z</time></trkpt>
        <trkpt lat="28.6779775" lon="104.6198395"><ele>574.58</ele><time>2025-12-02T23:05:54.000Z</time></trkpt>
        <trkpt lat="28.6780835" lon="104.6198399"><ele>573.31</ele><time>2025-12-02T23:06:04.000Z</time></trkpt>
        <trkpt lat="28.6781654" lon="104.6197868"><ele>572.61</ele><time>2025-12-02T23:06:14.000Z</time></trkpt>
        <trkpt lat="28.6782172" lon="104.6196867"><ele>571.94</ele><time>2025-12-02T23:06:24.000Z</time></trkpt>
        <trkpt lat="28.6782787" lon="104.619596"><ele>571.95</ele><time>2025-12-02T23:06:35.000Z</time></trkpt>
        <trkpt lat="28.6783757" lon="104.6195559"><ele>573.15</ele><time>2025-12-02T23:06:47.000Z</time></trkpt>
        <trkpt lat="28.6784652" lon="104.6195917"><ele>574.69</ele><time>2025-12-02T23:07:04.000Z</time></trkpt>
        <trkpt lat="28.678493" lon="104.6197002"><ele>579.28</ele><time>2025-12-02T23:07:20.000Z</time></trkpt>
        <trkpt lat="28.6784591" lon="104.6198185"><ele>581.39</ele><time>2025-12-02T23:07:30.000Z</time></trkpt>
        <trkpt lat="28.6784036" lon="104.6199306"><ele>583.31</ele><time>2025-12-02T23:07:40.000Z</time></trkpt>
        <trkpt lat="28.6783297" lon="104.6200299"><ele>585.32</ele><time>2025-12-02T23:07:50.000Z</time></trkpt>
        <trkpt lat="28.6782636" lon="104.6201318"><ele>587.24</ele><time>2025-12-02T23:07:59.000Z</time></trkpt>
        <trkpt lat="28.6781942" lon="104.6202351"><ele>589.03</ele><time>2025-12-02T23:08:09.000Z</time></trkpt>
        <trkpt lat="28.6781279" lon="104.6203238"><ele>589.78</ele><time>2025-12-02T23:08:17.000Z</time></trkpt>
        <trkpt lat="28.6780446" lon="104.6203975"><ele>590.51</ele><time>2025-12-02T23:08:27.000Z</time></trkpt>
        <trkpt lat="28.677945" lon="104.6203993"><ele>592.02</ele><time>2025-12-02T23:08:37.000Z</time></trkpt>
        <trkpt lat="28.6778478" lon="104.620356"><ele>593.13</ele><time>2025-12-02T23:08:47.000Z</time></trkpt>
        <trkpt lat="28.677743" lon="104.6203259"><ele>594.79</ele><time>2025-12-02T23:08:57.000Z</time></trkpt>
        <trkpt lat="28.6776463" lon="104.6203429"><ele>595.6</ele><time>2025-12-02T23:09:05.000Z</time></trkpt>
        <trkpt lat="28.6775476" lon="104.6203841"><ele>596.05</ele><time>2025-12-02T23:09:13.000Z</time></trkpt>
        <trkpt lat="28.6774518" lon="104.6204301"><ele>596.69</ele><time>2025-12-02T23:09:21.000Z</time></trkpt>
        <trkpt lat="28.6773529" lon="104.6204619"><ele>597.36</ele><time>2025-12-02T23:09:29.000Z</time></trkpt>
        <trkpt lat="28.6773168" lon="104.6204695"><ele>598.22</ele><time>2025-12-02T23:09:33.000Z</time></trkpt>
        <trkpt lat="28.6773898" lon="104.620491"><ele>598.86</ele><time>2025-12-02T23:09:45.000Z</time></trkpt>
        <trkpt lat="28.6774961" lon="104.6205059"><ele>600.21</ele><time>2025-12-02T23:09:53.000Z</time></trkpt>
        <trkpt lat="28.6776097" lon="104.6205187"><ele>601.7</ele><time>2025-12-02T23:10:01.000Z</time></trkpt>
        <trkpt lat="28.677716" lon="104.6205536"><ele>603.3</ele><time>2025-12-02T23:10:09.000Z</time></trkpt>
        <trkpt lat="28.6777761" lon="104.6206431"><ele>604.05</ele><time>2025-12-02T23:10:17.000Z</time></trkpt>
        <trkpt lat="28.6777916" lon="104.6207516"><ele>604.57</ele><time>2025-12-02T23:10:25.000Z</time></trkpt>
        <trkpt lat="28.6778206" lon="104.6208554"><ele>605.25</ele><time>2025-12-02T23:10:35.000Z</time></trkpt>
        <trkpt lat="28.6777608" lon="104.6209419"><ele>606.24</ele><time>2025-12-02T23:10:45.000Z</time></trkpt>
        <trkpt lat="28.6776619" lon="104.620985"><ele>608.45</ele><time>2025-12-02T23:10:53.000Z</time></trkpt>
        <trkpt lat="28.6775514" lon="104.6209538"><ele>610.47</ele><time>2025-12-02T23:11:03.000Z</time></trkpt>
        <trkpt lat="28.6775462" lon="104.6210099"><ele>611.4</ele><time>2025-12-02T23:11:15.000Z</time></trkpt>
        <trkpt lat="28.6776278" lon="104.6210642"><ele>612.5</ele><time>2025-12-02T23:11:25.000Z</time></trkpt>
        <trkpt lat="28.6777146" lon="104.6211414"><ele>613.88</ele><time>2025-12-02T23:11:37.000Z</time></trkpt>
        <trkpt lat="28.6778003" lon="104.6212101"><ele>615.34</ele><time>2025-12-02T23:11:47.000Z</time></trkpt>
        <trkpt lat="28.6778988" lon="104.6212748"><ele>616.83</ele><time>2025-12-02T23:11:57.000Z</time></trkpt>
        <trkpt lat="28.6779881" lon="104.6213243"><ele>618.47</ele><time>2025-12-02T23:12:05.000Z</time></trkpt>
        <trkpt lat="28.6780767" lon="104.6213137"><ele>619.69</ele><time>2025-12-02T23:12:13.000Z</time></trkpt>
        <trkpt lat="28.6780333" lon="104.6213317"><ele>620.79</ele><time>2025-12-02T23:12:43.000Z</time></trkpt>
        <trkpt lat="28.6779363" lon="104.6212951"><ele>621.11</ele><time>2025-12-02T23:12:56.000Z</time></trkpt>
        <trkpt lat="28.6778359" lon="104.6212202"><ele>620.54</ele><time>2025-12-02T23:13:08.000Z</time></trkpt>
        <trkpt lat="28.6777323" lon="104.621165"><ele>619.6</ele><time>2025-12-02T23:13:20.000Z</time></trkpt>
        <trkpt lat="28.6777604" lon="104.621197"><ele>618.24</ele><time>2025-12-02T23:13:30.000Z</time></trkpt>
        <trkpt lat="28.6778418" lon="104.6212489"><ele>618.39</ele><time>2025-12-02T23:13:38.000Z</time></trkpt>
        <trkpt lat="28.677937" lon="104.6213012"><ele>619.04</ele><time>2025-12-02T23:13:46.000Z</time></trkpt>
        <trkpt lat="28.67805" lon="104.6213012"><ele>620.41</ele><time>2025-12-02T23:13:56.000Z</time></trkpt>
        <trkpt lat="28.6781293" lon="104.6212229"><ele>621.45</ele><time>2025-12-02T23:14:18.000Z</time></trkpt>
        <trkpt lat="28.6781712" lon="104.6211065"><ele>621.32</ele><time>2025-12-02T23:14:28.000Z</time></trkpt>
        <trkpt lat="28.6782244" lon="104.621009"><ele>620.01</ele><time>2025-12-02T23:14:40.000Z</time></trkpt>
        <trkpt lat="28.6782478" lon="104.6208962"><ele>618.05</ele><time>2025-12-02T23:14:50.000Z</time></trkpt>
        <trkpt lat="28.6782923" lon="104.6207804"><ele>615.73</ele><time>2025-12-02T23:15:02.000Z</time></trkpt>
        <trkpt lat="28.6783384" lon="104.6206645"><ele>612.53</ele><time>2025-12-02T23:15:12.000Z</time></trkpt>
        <trkpt lat="28.6784006" lon="104.6205585"><ele>609.57</ele><time>2025-12-02T23:15:18.000Z</time></trkpt>
        <trkpt lat="28.6784378" lon="104.6206095"><ele>607.25</ele><time>2025-12-02T23:15:28.000Z</time></trkpt>
        <trkpt lat="28.6783928" lon="104.6207201"><ele>604.92</ele><time>2025-12-02T23:15:34.000Z</time></trkpt>
        <trkpt lat="28.6783228" lon="104.6208193"><ele>603.29</ele><time>2025-12-02T23:15:38.000Z</time></trkpt>
        <trkpt lat="28.6782576" lon="104.6209234"><ele>602.12</ele><time>2025-12-02T23:15:44.000Z</time></trkpt>
        <trkpt lat="28.6782102" lon="104.6210436"><ele>601.08</ele><time>2025-12-02T23:15:54.000Z</time></trkpt>
        <trkpt lat="28.6781728" lon="104.6211676"><ele>602.25</ele><time>2025-12-02T23:16:02.000Z</time></trkpt>
        <trkpt lat="28.6781515" lon="104.6212939"><ele>604.47</ele><time>2025-12-02T23:16:12.000Z</time></trkpt>
        <trkpt lat="28.6780931" lon="104.6213861"><ele>607.16</ele><time>2025-12-02T23:16:20.000Z</time></trkpt>
        <trkpt lat="28.6780118" lon="104.6214341"><ele>608.92</ele><time>2025-12-02T23:16:28.000Z</time></trkpt>
        <trkpt lat="28.6779176" lon="104.6214267"><ele>611.09</ele><time>2025-12-02T23:16:36.000Z</time></trkpt>
        <trkpt lat="28.677834" lon="104.6213715"><ele>613.27</ele><time>2025-12-02T23:16:44.000Z</time></trkpt>
        <trkpt lat="28.6777502" lon="104.6213085"><ele>614.5</ele><time>2025-12-02T23:16:58.000Z</time></trkpt>
        <trkpt lat="28.6776614" lon="104.6213157"><ele>613.54</ele><time>2025-12-02T23:17:06.000Z</time></trkpt>
        <trkpt lat="28.6775703" lon="104.621374"><ele>611.97</ele><time>2025-12-02T23:17:18.000Z</time></trkpt>
        <trkpt lat="28.6774826" lon="104.621438"><ele>610.59</ele><time>2025-12-02T23:17:30.000Z</time></trkpt>
        <trkpt lat="28.6774196" lon="104.6215417"><ele>608.8</ele><time>2025-12-02T23:17:42.000Z</time></trkpt>
        <trkpt lat="28.6773478" lon="104.6216251"><ele>606.31</ele><time>2025-12-02T23:17:51.000Z</time></trkpt>
        <trkpt lat="28.6772556" lon="104.6216776"><ele>603.48</ele><time>2025-12-02T23:18:01.000Z</time></trkpt>
        <trkpt lat="28.6771855" lon="104.6217552"><ele>600.31</ele><time>2025-12-02T23:18:11.000Z</time></trkpt>
        <trkpt lat="28.6772013" lon="104.6218488"><ele>597.68</ele><time>2025-12-02T23:18:19.000Z</time></trkpt>
        <trkpt lat="28.6772588" lon="104.6219446"><ele>595.75</ele><time>2025-12-02T23:18:27.000Z</time></trkpt>
        <trkpt lat="28.677333" lon="104.6220395"><ele>593.98</ele><time>2025-12-02T23:18:35.000Z</time></trkpt>
        <trkpt lat="28.6774275" lon="104.6221215"><ele>592.12</ele><time>2025-12-02T23:18:43.000Z</time></trkpt>
        <trkpt lat="28.6775396" lon="104.6221385"><ele>590.55</ele><time>2025-12-02T23:18:51.000Z</time></trkpt>
        <trkpt lat="28.6776485" lon="104.6220882"><ele>589.43</ele><time>2025-12-02T23:18:59.000Z</time></trkpt>
        <trkpt lat="28.6777692" lon="104.6220662"><ele>588.05</ele><time>2025-12-02T23:19:07.000Z</time></trkpt>
        <trkpt lat="28.6778853" lon="104.6220875"><ele>585.87</ele><time>2025-12-02T23:19:15.000Z</time></trkpt>
        <trkpt lat="28.677984" lon="104.6221344"><ele>584.58</ele><time>2025-12-02T23:19:23.000Z</time></trkpt>
        <trkpt lat="28.6780725" lon="104.622209"><ele>583.66</ele><time>2025-12-02T23:19:31.000Z</time></trkpt>
        <trkpt lat="28.678166" lon="104.6222823"><ele>583.35</ele><time>2025-12-02T23:19:39.000Z</time></trkpt>
        <trkpt lat="28.6782551" lon="104.6223215"><ele>583.36</ele><time>2025-12-02T23:19:45.000Z</time></trkpt>
        <trkpt lat="28.678361" lon="104.6223233"><ele>583.64</ele><time>2025-12-02T23:19:53.000Z</time></trkpt>
        <trkpt lat="28.678464" lon="104.6223022"><ele>584.09</ele><time>2025-12-02T23:19:59.000Z</time></trkpt>
        <trkpt lat="28.6785348" lon="104.6223064"><ele>583.89</ele><time>2025-12-02T23:20:03.000Z</time></trkpt>
        <trkpt lat="28.6786267" lon="104.622374"><ele>582.87</ele><time>2025-12-02T23:20:15.000Z</time></trkpt>
        <trkpt lat="28.6786699" lon="104.6225052"><ele>580.34</ele><time>2025-12-02T23:20:21.000Z</time></trkpt>
        <trkpt lat="28.6786495" lon="104.6226503"><ele>577.5</ele><time>2025-12-02T23:20:27.000Z</time></trkpt>
        <trkpt lat="28.6785729" lon="104.6227691"><ele>574.53</ele><time>2025-12-02T23:20:33.000Z</time></trkpt>
        <trkpt lat="28.6784968" lon="104.6228584"><ele>571.82</ele><time>2025-12-02T23:20:37.000Z</time></trkpt>
        <trkpt lat="28.6784198" lon="104.6229364"><ele>569.65</ele><time>2025-12-02T23:20:41.000Z</time></trkpt>
        <trkpt lat="28.6783378" lon="104.6229965"><ele>567.9</ele><time>2025-12-02T23:20:45.000Z</time></trkpt>
        <trkpt lat="28.6782462" lon="104.62303"><ele>566.52</ele><time>2025-12-02T23:20:49.000Z</time></trkpt>
        <trkpt lat="28.6781204" lon="104.6230516"><ele>565.13</ele><time>2025-12-02T23:20:55.000Z</time></trkpt>
        <trkpt lat="28.6780137" lon="104.6230714"><ele>563.48</ele><time>2025-12-02T23:20:59.000Z</time></trkpt>
        <trkpt lat="28.6779243" lon="104.62312"><ele>561.85</ele><time>2025-12-02T23:21:03.000Z</time></trkpt>
        <trkpt lat="28.677856" lon="104.6231979"><ele>560.24</ele><time>2025-12-02T23:21:07.000Z</time></trkpt>
        <trkpt lat="28.6778141" lon="104.6232962"><ele>558.42</ele><time>2025-12-02T23:21:11.000Z</time></trkpt>
        <trkpt lat="28.6777495" lon="104.6234116"><ele>556.83</ele><time>2025-12-02T23:21:17.000Z</time></trkpt>
        <trkpt lat="28.6776562" lon="104.6234922"><ele>555.4</ele><time>2025-12-02T23:21:23.000Z</time></trkpt>
        <trkpt lat="28.6775431" lon="104.6235398"><ele>555.01</ele><time>2025-12-02T23:21:31.000Z</time></trkpt>
        <trkpt lat="28.6774335" lon="104.6235501"><ele>554.28</ele><time>2025-12-02T23:21:37.000Z</time></trkpt>
        <trkpt lat="28.6773294" lon="104.6235589"><ele>553.38</ele><time>2025-12-02T23:21:43.000Z</time></trkpt>
        <trkpt lat="28.6773819" lon="104.6235778"><ele>552.6</ele><time>2025-12-02T23:21:51.000Z</time></trkpt>
        <trkpt lat="28.6774905" lon="104.623617"><ele>551.8</ele><time>2025-12-02T23:21:59.000Z</time></trkpt>
        <trkpt lat="28.6776135" lon="104.6236408"><ele>550.52</ele><time>2025-12-02T23:22:07.000Z</time></trkpt>
        <trkpt lat="28.6777388" lon="104.6236404"><ele>549.48</ele><time>2025-12-02T23:22:15.000Z</time></trkpt>
        <trkpt lat="28.6778441" lon="104.623608"><ele>548.95</ele><time>2025-12-02T23:22:21.000Z</time></trkpt>
        <trkpt lat="28.6779295" lon="104.6235505"><ele>548.14</ele><time>2025-12-02T23:22:25.000Z</time></trkpt>
        <trkpt lat="28.6780144" lon="104.6234815"><ele>546.9</ele><time>2025-12-02T23:22:29.000Z</time></trkpt>
        <trkpt lat="28.6781043" lon="104.6234262"><ele>545.8</ele><time>2025-12-02T23:22:33.000Z</time></trkpt>
        <trkpt lat="28.6782019" lon="104.6234175"><ele>545.1</ele><time>2025-12-02T23:22:37.000Z</time></trkpt>
        <trkpt lat="28.6782943" lon="104.6234486"><ele>545.06</ele><time>2025-12-02T23:22:41.000Z</time></trkpt>
        <trkpt lat="28.6782354" lon="104.6234486"><ele>544.2</ele><time>2025-12-02T23:23:02.000Z</time></trkpt>
        <trkpt lat="28.6781058" lon="104.6234577"><ele>543.55</ele><time>2025-12-02T23:23:08.000Z</time></trkpt>
        <trkpt lat="28.6779896" lon="104.6235075"><ele>543.11</ele><time>2025-12-02T23:23:12.000Z</time></trkpt>
        <trkpt lat="28.6778823" lon="104.6235794"><ele>543.71</ele><time>2025-12-02T23:23:18.000Z</time></trkpt>
        <trkpt lat="28.6779405" lon="104.6235863"><ele>543.84</ele><time>2025-12-02T23:23:32.000Z</time></trkpt>
        <trkpt lat="28.6780424" lon="104.6236303"><ele>540.74</ele><time>2025-12-02T23:23:40.000Z</time></trkpt>
        <trkpt lat="28.6781128" lon="104.6237137"><ele>538.05</ele><time>2025-12-02T23:23:46.000Z</time></trkpt>
        <trkpt lat="28.6781529" lon="104.6238082"><ele>535.84</ele><time>2025-12-02T23:23:52.000Z</time></trkpt>
        <trkpt lat="28.6782263" lon="104.6238651"><ele>533.44</ele><time>2025-12-02T23:24:08.000Z</time></trkpt>
        <trkpt lat="28.6783395" lon="104.6238854"><ele>532.06</ele><time>2025-12-02T23:24:14.000Z</time></trkpt>
        <trkpt lat="28.6784358" lon="104.6239212"><ele>531.08</ele><time>2025-12-02T23:24:18.000Z</time></trkpt>
        <trkpt lat="28.678536" lon="104.6239724"><ele>530.38</ele><time>2025-12-02T23:24:24.000Z</time></trkpt>
        <trkpt lat="28.6786502" lon="104.6240052"><ele>529.23</ele><time>2025-12-02T23:24:32.000Z</time></trkpt>
        <trkpt lat="28.6787551" lon="104.624061"><ele>527.51</ele><time>2025-12-02T23:24:38.000Z</time></trkpt>
        <trkpt lat="28.6788464" lon="104.624145"><ele>525.39</ele><time>2025-12-02T23:24:44.000Z</time></trkpt>
        <trkpt lat="28.6789448" lon="104.6242207"><ele>523.16</ele><time>2025-12-02T23:24:52.000Z</time></trkpt>
        <trkpt lat="28.6790202" lon="104.6243387"><ele>520.88</ele><time>2025-12-02T23:24:58.000Z</time></trkpt>
        <trkpt lat="28.6791039" lon="104.6244089"><ele>518.4</ele><time>2025-12-02T23:25:02.000Z</time></trkpt>
        <trkpt lat="28.6792049" lon="104.6244096"><ele>516.7</ele><time>2025-12-02T23:25:06.000Z</time></trkpt>
        <trkpt lat="28.6793103" lon="104.624421"><ele>515.87</ele><time>2025-12-02T23:25:10.000Z</time></trkpt>
        <trkpt lat="28.6793947" lon="104.6244745"><ele>515.07</ele><time>2025-12-02T23:25:14.000Z</time></trkpt>
        <trkpt lat="28.6794153" lon="104.6245727"><ele>514.67</ele><time>2025-12-02T23:25:18.000Z</time></trkpt>
        <trkpt lat="28.6793696" lon="104.6246765"><ele>514.06</ele><time>2025-12-02T23:25:24.000Z</time></trkpt>
        <trkpt lat="28.6792952" lon="104.6247833"><ele>513.42</ele><time>2025-12-02T23:25:32.000Z</time></trkpt>
        <trkpt lat="28.6792476" lon="104.6248998"><ele>513.97</ele><time>2025-12-02T23:25:36.000Z</time></trkpt>
        <trkpt lat="28.6792478" lon="104.6250268"><ele>513.71</ele><time>2025-12-02T23:25:40.000Z</time></trkpt>
        <trkpt lat="28.6793235" lon="104.6251106"><ele>513.24</ele><time>2025-12-02T23:25:44.000Z</time></trkpt>
        <trkpt lat="28.6794313" lon="104.6251582"><ele>512.14</ele><time>2025-12-02T23:25:48.000Z</time></trkpt>
        <trkpt lat="28.6795447" lon="104.6251939"><ele>511.82</ele><time>2025-12-02T23:25:52.000Z</time></trkpt>
        <trkpt lat="28.6796624" lon="104.6252228"><ele>512.1</ele><time>2025-12-02T23:25:56.000Z</time></trkpt>
        <trkpt lat="28.6797531" lon="104.6252918"><ele>511.99</ele><time>2025-12-02T23:26:00.000Z</time></trkpt>
        <trkpt lat="28.6797689" lon="104.6253991"><ele>512.47</ele><time>2025-12-02T23:26:04.000Z</time></trkpt>
        <trkpt lat="28.6797903" lon="104.6255118"><ele>512.18</ele><time>2025-12-02T23:26:10.000Z</time></trkpt>
        <trkpt lat="28.6798691" lon="104.6255525"><ele>511.72</ele><time>2025-12-02T23:26:18.000Z</time></trkpt>
        <trkpt lat="28.6799739" lon="104.6255796"><ele>511.89</ele><time>2025-12-02T23:26:26.000Z</time></trkpt>
        <trkpt lat="28.6800806" lon="104.625603"><ele>513.41</ele><time>2025-12-02T23:26:38.000Z</time></trkpt>
        <trkpt lat="28.6801272" lon="104.6257002"><ele>515.67</ele><time>2025-12-02T23:26:48.000Z</time></trkpt>
        <trkpt lat="28.6801527" lon="104.6258107"><ele>516.24</ele><time>2025-12-02T23:26:56.000Z</time></trkpt>
        <trkpt lat="28.6801858" lon="104.62593"><ele>516.45</ele><time>2025-12-02T23:27:06.000Z</time></trkpt>
        <trkpt lat="28.6802458" lon="104.6260109"><ele>516.23</ele><time>2025-12-02T23:27:14.000Z</time></trkpt>
        <trkpt lat="28.6803067" lon="104.6261065"><ele>516.86</ele><time>2025-12-02T23:27:24.000Z</time></trkpt>
        <trkpt lat="28.6803261" lon="104.626214"><ele>518.17</ele><time>2025-12-02T23:27:37.000Z</time></trkpt>
        <trkpt lat="28.6803206" lon="104.6263251"><ele>519.71</ele><time>2025-12-02T23:27:55.000Z</time></trkpt>
        <trkpt lat="28.680263" lon="104.6264197"><ele>522.08</ele><time>2025-12-02T23:28:11.000Z</time></trkpt>
        <trkpt lat="28.6803091" lon="104.6264742"><ele>525.45</ele><time>2025-12-02T23:28:19.000Z</time></trkpt>
        <trkpt lat="28.6803561" lon="104.6265713"><ele>526.71</ele><time>2025-12-02T23:28:29.000Z</time></trkpt>
        <trkpt lat="28.6803846" lon="104.6267018"><ele>528.52</ele><time>2025-12-02T23:28:37.000Z</time></trkpt>
        <trkpt lat="28.6803783" lon="104.62684"><ele>529.12</ele><time>2025-12-02T23:28:43.000Z</time></trkpt>
        <trkpt lat="28.6803848" lon="104.6269553"><ele>529.86</ele><time>2025-12-02T23:28:47.000Z</time></trkpt>
        <trkpt lat="28.6804054" lon="104.6270622"><ele>531.24</ele><time>2025-12-02T23:28:53.000Z</time></trkpt>
        <trkpt lat="28.6804401" lon="104.6271595"><ele>532.86</ele><time>2025-12-02T23:28:59.000Z</time></trkpt>
        <trkpt lat="28.6804969" lon="104.6272732"><ele>534.27</ele><time>2025-12-02T23:29:05.000Z</time></trkpt>
        <trkpt lat="28.6805272" lon="104.6273937"><ele>535.69</ele><time>2025-12-02T23:29:13.000Z</time></trkpt>
        <trkpt lat="28.6805492" lon="104.6275152"><ele>537.39</ele><time>2025-12-02T23:29:23.000Z</time></trkpt>
        <trkpt lat="28.6805562" lon="104.6276408"><ele>537.22</ele><time>2025-12-02T23:29:33.000Z</time></trkpt>
        <trkpt lat="28.6805008" lon="104.6277387"><ele>536.83</ele><time>2025-12-02T23:29:45.000Z</time></trkpt>
        <trkpt lat="28.6804082" lon="104.6278353"><ele>537.1</ele><time>2025-12-02T23:29:55.000Z</time></trkpt>
        <trkpt lat="28.6803275" lon="104.6279147"><ele>537.1</ele><time>2025-12-02T23:30:01.000Z</time></trkpt>
        <trkpt lat="28.6802654" lon="104.6280123"><ele>537.59</ele><time>2025-12-02T23:30:18.000Z</time></trkpt>
        <trkpt lat="28.6802464" lon="104.6281184"><ele>540.15</ele><time>2025-12-02T23:30:30.000Z</time></trkpt>
        <trkpt lat="28.680279" lon="104.6282247"><ele>542.49</ele><time>2025-12-02T23:30:40.000Z</time></trkpt>
        <trkpt lat="28.6802966" lon="104.6282751"><ele>543.66</ele><time>2025-12-02T23:30:46.000Z</time></trkpt>
        <trkpt lat="28.6803774" lon="104.6282941"><ele>544.3</ele><time>2025-12-02T23:30:58.000Z</time></trkpt>
        <trkpt lat="28.6803901" lon="104.6283792"><ele>545.88</ele><time>2025-12-02T23:31:09.000Z</time></trkpt>
        <trkpt lat="28.6803719" lon="104.6284927"><ele>545.63</ele><time>2025-12-02T23:31:17.000Z</time></trkpt>
        <trkpt lat="28.6803546" lon="104.6286164"><ele>545.25</ele><time>2025-12-02T23:31:23.000Z</time></trkpt>
        <trkpt lat="28.6803603" lon="104.6287455"><ele>545.66</ele><time>2025-12-02T23:31:31.000Z</time></trkpt>
        <trkpt lat="28.6803499" lon="104.6286798"><ele>545.21</ele><time>2025-12-02T23:31:47.000Z</time></trkpt>
        <trkpt lat="28.6804048" lon="104.6285685"><ele>546.25</ele><time>2025-12-02T23:31:53.000Z</time></trkpt>
        <trkpt lat="28.6804411" lon="104.6284467"><ele>546.71</ele><time>2025-12-02T23:32:01.000Z</time></trkpt>
        <trkpt lat="28.6804632" lon="104.6283722"><ele>546.85</ele><time>2025-12-02T23:32:09.000Z</time></trkpt>
        <trkpt lat="28.6805139" lon="104.6282857"><ele>546.18</ele><time>2025-12-02T23:32:24.000Z</time></trkpt>
        <trkpt lat="28.6805685" lon="104.6281967"><ele>543.6</ele><time>2025-12-02T23:32:54.000Z</time></trkpt>
        <trkpt lat="28.6806531" lon="104.6281598"><ele>540.85</ele><time>2025-12-02T23:33:10.000Z</time></trkpt>
        <trkpt lat="28.680749" lon="104.6281433"><ele>537.87</ele><time>2025-12-02T23:33:24.000Z</time></trkpt>
        <trkpt lat="28.6808494" lon="104.6281336"><ele>534.26</ele><time>2025-12-02T23:33:42.000Z</time></trkpt>
        <trkpt lat="28.6809149" lon="104.6280678"><ele>531.74</ele><time>2025-12-02T23:33:48.000Z</time></trkpt>
        <trkpt lat="28.6809784" lon="104.6279702"><ele>530.77</ele><time>2025-12-02T23:33:54.000Z</time></trkpt>
        <trkpt lat="28.6809832" lon="104.6279068"><ele>530.64</ele><time>2025-12-02T23:34:00.000Z</time></trkpt>
        <trkpt lat="28.6810432" lon="104.6278726"><ele>529.93</ele><time>2025-12-02T23:34:16.000Z</time></trkpt>
        <trkpt lat="28.6811303" lon="104.6278525"><ele>527.89</ele><time>2025-12-02T23:34:42.000Z</time></trkpt>
        <trkpt lat="28.6812241" lon="104.6278406"><ele>522.5</ele><time>2025-12-02T23:35:04.000Z</time></trkpt>
        <trkpt lat="28.6813196" lon="104.6278152"><ele>516.43</ele><time>2025-12-02T23:35:28.000Z</time></trkpt>
        <trkpt lat="28.6814131" lon="104.6277713"><ele>510.99</ele><time>2025-12-02T23:35:46.000Z</time></trkpt>
        <trkpt lat="28.6815055" lon="104.6277176"><ele>505.69</ele><time>2025-12-02T23:36:00.000Z</time></trkpt>
        <trkpt lat="28.6815419" lon="104.6276174"><ele>501.78</ele><time>2025-12-02T23:36:12.000Z</time></trkpt>
        <trkpt lat="28.6815879" lon="104.6275262"><ele>499.54</ele><time>2025-12-02T23:36:36.000Z</time></trkpt>
        <trkpt lat="28.6816578" lon="104.6274524"><ele>495.51</ele><time>2025-12-02T23:36:52.000Z</time></trkpt>
        <trkpt lat="28.6817606" lon="104.6274457"><ele>491.62</ele><time>2025-12-02T23:37:17.000Z</time></trkpt>
        <trkpt lat="28.6818686" lon="104.6274321"><ele>486.45</ele><time>2025-12-02T23:37:27.000Z</time></trkpt>
        <trkpt lat="28.6819536" lon="104.6274884"><ele>482.34</ele><time>2025-12-02T23:37:45.000Z</time></trkpt>
        <trkpt lat="28.6820566" lon="104.6274938"><ele>477.34</ele><time>2025-12-02T23:37:51.000Z</time></trkpt>
        <trkpt lat="28.682147" lon="104.6274479"><ele>474.14</ele><time>2025-12-02T23:37:57.000Z</time></trkpt>
        <trkpt lat="28.6822327" lon="104.6273965"><ele>469.35</ele><time>2025-12-02T23:38:07.000Z</time></trkpt>
        <trkpt lat="28.68225" lon="104.6274602"><ele>465.49</ele><time>2025-12-02T23:38:23.000Z</time></trkpt>
        <trkpt lat="28.6822764" lon="104.6275576"><ele>459.5</ele><time>2025-12-02T23:38:31.000Z</time></trkpt>
        <trkpt lat="28.6822926" lon="104.6276707"><ele>455.58</ele><time>2025-12-02T23:38:41.000Z</time></trkpt>
        <trkpt lat="28.682312" lon="104.6277863"><ele>449.91</ele><time>2025-12-02T23:38:53.000Z</time></trkpt>
        <trkpt lat="28.6823201" lon="104.6278231"><ele>445.57</ele><time>2025-12-02T23:38:59.000Z</time></trkpt>
        <trkpt lat="28.6823873" lon="104.6277186"><ele>443.61</ele><time>2025-12-02T23:40:26.000Z</time></trkpt>
        <trkpt lat="28.682402" lon="104.6276037"><ele>442.6</ele><time>2025-12-02T23:40:34.000Z</time></trkpt>
        <trkpt lat="28.6824052" lon="104.6275848"><ele>442.55</ele><time>2025-12-02T23:40:36.000Z</time></trkpt>
        <trkpt lat="28.6824542" lon="104.6275273"><ele>442.32</ele><time>2025-12-02T23:41:01.000Z</time></trkpt>
        <trkpt lat="28.6825431" lon="104.6274587"><ele>440.89</ele><time>2025-12-02T23:41:07.000Z</time></trkpt>
        <trkpt lat="28.6826167" lon="104.6273746"><ele>440.47</ele><time>2025-12-02T23:41:19.000Z</time></trkpt>
        <trkpt lat="28.6826683" lon="104.6272782"><ele>439.5</ele><time>2025-12-02T23:41:25.000Z</time></trkpt>
        <trkpt lat="28.6827196" lon="104.6271748"><ele>438.71</ele><time>2025-12-02T23:41:29.000Z</time></trkpt>
        <trkpt lat="28.682773" lon="104.6270709"><ele>438.34</ele><time>2025-12-02T23:41:43.000Z</time></trkpt>
        <trkpt lat="28.6828461" lon="104.6270054"><ele>439.13</ele><time>2025-12-02T23:41:51.000Z</time></trkpt>
        <trkpt lat="28.6829475" lon="104.6269835"><ele>438.74</ele><time>2025-12-02T23:41:59.000Z</time></trkpt>
        <trkpt lat="28.6830643" lon="104.6269554"><ele>436.1</ele><time>2025-12-02T23:42:04.000Z</time></trkpt>
        <trkpt lat="28.6830285" lon="104.6269256"><ele>434.37</ele><time>2025-12-02T23:42:22.000Z</time></trkpt>
        <trkpt lat="28.6829244" lon="104.6268994"><ele>436.2</ele><time>2025-12-02T23:42:36.000Z</time></trkpt>
        <trkpt lat="28.6828598" lon="104.6268784"><ele>436</ele><time>2025-12-02T23:42:44.000Z</time></trkpt>
        <trkpt lat="28.6827711" lon="104.6268764"><ele>433.49</ele><time>2025-12-02T23:42:56.000Z</time></trkpt>
        <trkpt lat="28.6826762" lon="104.6269175"><ele>432.06</ele><time>2025-12-02T23:43:04.000Z</time></trkpt>
        <trkpt lat="28.6825999" lon="104.6269296"><ele>431.06</ele><time>2025-12-02T23:43:16.000Z</time></trkpt>
        <trkpt lat="28.6826493" lon="104.6268971"><ele>430.22</ele><time>2025-12-02T23:43:28.000Z</time></trkpt>
        <trkpt lat="28.6827299" lon="104.626834"><ele>427.86</ele><time>2025-12-02T23:43:40.000Z</time></trkpt>
        <trkpt lat="28.6828352" lon="104.6267923"><ele>425.03</ele><time>2025-12-02T23:44:00.000Z</time></trkpt>
        <trkpt lat="28.6829143" lon="104.6267192"><ele>419.47</ele><time>2025-12-02T23:44:34.000Z</time></trkpt>
        <trkpt lat="28.6830077" lon="104.6266876"><ele>414.23</ele><time>2025-12-02T23:45:06.000Z</time></trkpt>
        <trkpt lat="28.6829774" lon="104.6266336"><ele>407.93</ele><time>2025-12-02T23:45:34.000Z</time></trkpt>
        <trkpt lat="28.6830322" lon="104.6266238"><ele>404.88</ele><time>2025-12-02T23:45:42.000Z</time></trkpt>
        <trkpt lat="28.683105" lon="104.6265729"><ele>400.87</ele><time>2025-12-02T23:45:52.000Z</time></trkpt>
        <trkpt lat="28.6831776" lon="104.6264926"><ele>398.85</ele><time>2025-12-02T23:46:02.000Z</time></trkpt>
        <trkpt lat="28.6832711" lon="104.6264667"><ele>398.5</ele><time>2025-12-02T23:46:12.000Z</time></trkpt>
        <trkpt lat="28.6832391" lon="104.6264098"><ele>398.55</ele><time>2025-12-02T23:46:24.000Z</time></trkpt>
        <trkpt lat="28.6831399" lon="104.6264287"><ele>399.15</ele><time>2025-12-02T23:46:32.000Z</time></trkpt>
        <trkpt lat="28.6830324" lon="104.6264788"><ele>399.43</ele><time>2025-12-02T23:46:40.000Z</time></trkpt>
        <trkpt lat="28.6829233" lon="104.6264957"><ele>398.65</ele><time>2025-12-02T23:46:48.000Z</time></trkpt>
        <trkpt lat="28.6829157" lon="104.6264157"><ele>396.95</ele><time>2025-12-02T23:46:56.000Z</time></trkpt>
        <trkpt lat="28.6829958" lon="104.6263399"><ele>396.3</ele><time>2025-12-02T23:47:05.000Z</time></trkpt>
        <trkpt lat="28.6830744" lon="104.6262396"><ele>397.97</ele><time>2025-12-02T23:47:23.000Z</time></trkpt>
        <trkpt lat="28.6831491" lon="104.6261444"><ele>396.34</ele><time>2025-12-02T23:47:33.000Z</time></trkpt>
        <trkpt lat="28.6832288" lon="104.6260753"><ele>394.78</ele><time>2025-12-02T23:47:47.000Z</time></trkpt>
        <trkpt lat="28.6832674" lon="104.6259811"><ele>392.81</ele><time>2025-12-02T23:48:01.000Z</time></trkpt>
        <trkpt lat="28.6833339" lon="104.6259111"><ele>391.78</ele><time>2025-12-02T23:48:19.000Z</time></trkpt>
        <trkpt lat="28.6834107" lon="104.6258473"><ele>391.91</ele><time>2025-12-02T23:48:31.000Z</time></trkpt>
        <trkpt lat="28.6833742" lon="104.6258877"><ele>392.79</ele><time>2025-12-02T23:48:41.000Z</time></trkpt>
        <trkpt lat="28.6832987" lon="104.6259794"><ele>392.79</ele><time>2025-12-02T23:48:51.000Z</time></trkpt>
        <trkpt lat="28.683252" lon="104.6260293"><ele>392.78</ele><time>2025-12-02T23:48:57.000Z</time></trkpt>
        <trkpt lat="28.6831677" lon="104.6260441"><ele>392.52</ele><time>2025-12-02T23:49:23.000Z</time></trkpt>
        <trkpt lat="28.6831304" lon="104.6259649"><ele>388.8</ele><time>2025-12-02T23:50:01.000Z</time></trkpt>
        <trkpt lat="28.6831806" lon="104.6258874"><ele>386.97</ele><time>2025-12-02T23:50:09.000Z</time></trkpt>
        <trkpt lat="28.6832446" lon="104.625795"><ele>388.15</ele><time>2025-12-02T23:50:19.000Z</time></trkpt>
        <trkpt lat="28.6833143" lon="104.6256802"><ele>387.8</ele><time>2025-12-02T23:50:27.000Z</time></trkpt>
        <trkpt lat="28.683333" lon="104.6255543"><ele>386.63</ele><time>2025-12-02T23:50:35.000Z</time></trkpt>
        <trkpt lat="28.6833592" lon="104.6254451"><ele>384.78</ele><time>2025-12-02T23:50:41.000Z</time></trkpt>
        <trkpt lat="28.6834034" lon="104.6253543"><ele>382.92</ele><time>2025-12-02T23:50:55.000Z</time></trkpt>
        <trkpt lat="28.683488" lon="104.6252743"><ele>380.38</ele><time>2025-12-02T23:51:01.000Z</time></trkpt>
        <trkpt lat="28.6835315" lon="104.6251652"><ele>379.29</ele><time>2025-12-02T23:51:09.000Z</time></trkpt>
        <trkpt lat="28.6835544" lon="104.625086"><ele>378.04</ele><time>2025-12-02T23:51:15.000Z</time></trkpt>
        <trkpt lat="28.6836354" lon="104.6250255"><ele>377.17</ele><time>2025-12-02T23:51:27.000Z</time></trkpt>
        <trkpt lat="28.6837199" lon="104.624977"><ele>375.85</ele><time>2025-12-02T23:51:37.000Z</time></trkpt>
        <trkpt lat="28.6837935" lon="104.6249067"><ele>373.14</ele><time>2025-12-02T23:51:49.000Z</time></trkpt>
        <trkpt lat="28.6838209" lon="104.6248017"><ele>371.34</ele><time>2025-12-02T23:51:57.000Z</time></trkpt>
        <trkpt lat="28.683875" lon="104.6246916"><ele>372.34</ele><time>2025-12-02T23:52:10.000Z</time></trkpt>
        <trkpt lat="28.6838301" lon="104.6247229"><ele>372.39</ele><time>2025-12-02T23:52:24.000Z</time></trkpt>
        <trkpt lat="28.6837577" lon="104.624801"><ele>371.06</ele><time>2025-12-02T23:52:28.000Z</time></trkpt>
        <trkpt lat="28.6836594" lon="104.6248299"><ele>370.17</ele><time>2025-12-02T23:52:34.000Z</time></trkpt>
        <trkpt lat="28.6836699" lon="104.6247689"><ele>368.63</ele><time>2025-12-02T23:52:38.000Z</time></trkpt>
        <trkpt lat="28.6837268" lon="104.6246576"><ele>366.95</ele><time>2025-12-02T23:52:44.000Z</time></trkpt>
        <trkpt lat="28.683806" lon="104.6245285"><ele>365.43</ele><time>2025-12-02T23:52:50.000Z</time></trkpt>
        <trkpt lat="28.68388" lon="104.6244265"><ele>364.16</ele><time>2025-12-02T23:52:54.000Z</time></trkpt>
        <trkpt lat="28.6839357" lon="104.6243225"><ele>363.67</ele><time>2025-12-02T23:52:58.000Z</time></trkpt>
        <trkpt lat="28.6839869" lon="104.6241891"><ele>363.21</ele><time>2025-12-02T23:53:04.000Z</time></trkpt>
        <trkpt lat="28.6840157" lon="104.6240629"><ele>362.91</ele><time>2025-12-02T23:53:08.000Z</time></trkpt>
        <trkpt lat="28.6840253" lon="104.6239481"><ele>362.32</ele><time>2025-12-02T23:53:12.000Z</time></trkpt>
        <trkpt lat="28.6840673" lon="104.6238462"><ele>361.5</ele><time>2025-12-02T23:53:16.000Z</time></trkpt>
        <trkpt lat="28.6841673" lon="104.6238151"><ele>359.83</ele><time>2025-12-02T23:53:20.000Z</time></trkpt>
        <trkpt lat="28.6842743" lon="104.6238295"><ele>358.38</ele><time>2025-12-02T23:53:24.000Z</time></trkpt>
        <trkpt lat="28.6844035" lon="104.6238128"><ele>357.86</ele><time>2025-12-02T23:53:30.000Z</time></trkpt>
        <trkpt lat="28.6844901" lon="104.6237165"><ele>357.75</ele><time>2025-12-02T23:53:36.000Z</time></trkpt>
        <trkpt lat="28.6845578" lon="104.6236276"><ele>359.57</ele><time>2025-12-02T23:53:40.000Z</time></trkpt>
        <trkpt lat="28.6846439" lon="104.6235537"><ele>361.05</ele><time>2025-12-02T23:53:44.000Z</time></trkpt>
        <trkpt lat="28.6847381" lon="104.6234997"><ele>362.11</ele><time>2025-12-02T23:53:48.000Z</time></trkpt>
        <trkpt lat="28.68483" lon="104.6234939"><ele>362.58</ele><time>2025-12-02T23:53:52.000Z</time></trkpt>
        <trkpt lat="28.6849016" lon="104.6235661"><ele>363.26</ele><time>2025-12-02T23:53:56.000Z</time></trkpt>
        <trkpt lat="28.6849371" lon="104.623685"><ele>363.19</ele><time>2025-12-02T23:54:00.000Z</time></trkpt>
        <trkpt lat="28.6849602" lon="104.6238182"><ele>362.58</ele><time>2025-12-02T23:54:04.000Z</time></trkpt>
        <trkpt lat="28.6849608" lon="104.6239464"><ele>360.9</ele><time>2025-12-02T23:54:08.000Z</time></trkpt>
        <trkpt lat="28.6849461" lon="104.624069"><ele>359.84</ele><time>2025-12-02T23:54:12.000Z</time></trkpt>
        <trkpt lat="28.6849218" lon="104.6241756"><ele>359.52</ele><time>2025-12-02T23:54:16.000Z</time></trkpt>
        <trkpt lat="28.6848971" lon="104.6242882"><ele>359.48</ele><time>2025-12-02T23:54:20.000Z</time></trkpt>
        <trkpt lat="28.6848854" lon="104.6244049"><ele>359.84</ele><time>2025-12-02T23:54:24.000Z</time></trkpt>
        <trkpt lat="28.6848737" lon="104.6245319"><ele>360.25</ele><time>2025-12-02T23:54:28.000Z</time></trkpt>
        <trkpt lat="28.6848658" lon="104.6246458"><ele>360.22</ele><time>2025-12-02T23:54:32.000Z</time></trkpt>
        <trkpt lat="28.6848767" lon="104.6247915"><ele>359.86</ele><time>2025-12-02T23:54:38.000Z</time></trkpt>
        <trkpt lat="28.6849357" lon="104.6248976"><ele>359.55</ele><time>2025-12-02T23:54:42.000Z</time></trkpt>
        <trkpt lat="28.6850439" lon="104.6249183"><ele>361.1</ele><time>2025-12-02T23:54:48.000Z</time></trkpt>
        <trkpt lat="28.6851464" lon="104.6248345"><ele>362.67</ele><time>2025-12-02T23:54:54.000Z</time></trkpt>
        <trkpt lat="28.6852077" lon="104.6247156"><ele>363.52</ele><time>2025-12-02T23:54:58.000Z</time></trkpt>
        <trkpt lat="28.685239" lon="104.6245896"><ele>363.93</ele><time>2025-12-02T23:55:02.000Z</time></trkpt>
        <trkpt lat="28.6852747" lon="104.6244709"><ele>363.73</ele><time>2025-12-02T23:55:06.000Z</time></trkpt>
        <trkpt lat="28.6853472" lon="104.6244156"><ele>363.72</ele><time>2025-12-02T23:55:10.000Z</time></trkpt>
        <trkpt lat="28.6854468" lon="104.6244377"><ele>363.21</ele><time>2025-12-02T23:55:16.000Z</time></trkpt>
        <trkpt lat="28.685536" lon="104.6245055"><ele>360.79</ele><time>2025-12-02T23:55:22.000Z</time></trkpt>
        <trkpt lat="28.6856357" lon="104.6245341"><ele>359.46</ele><time>2025-12-02T23:55:30.000Z</time></trkpt>
        <trkpt lat="28.6857174" lon="104.6244807"><ele>359.93</ele><time>2025-12-02T23:55:38.000Z</time></trkpt>
        <trkpt lat="28.6857763" lon="104.6243757"><ele>361</ele><time>2025-12-02T23:55:46.000Z</time></trkpt>
        <trkpt lat="28.6857961" lon="104.6242965"><ele>362.41</ele><time>2025-12-02T23:55:56.000Z</time></trkpt>
        <trkpt lat="28.6858155" lon="104.6241963"><ele>363.68</ele><time>2025-12-02T23:56:28.000Z</time></trkpt>
        <trkpt lat="28.6857964" lon="104.6240928"><ele>363.91</ele><time>2025-12-02T23:56:36.000Z</time></trkpt>
        <trkpt lat="28.685764" lon="104.6239817"><ele>363.9</ele><time>2025-12-02T23:56:44.000Z</time></trkpt>
        <trkpt lat="28.6857712" lon="104.6238647"><ele>363.72</ele><time>2025-12-02T23:56:53.000Z</time></trkpt>
        <trkpt lat="28.6858311" lon="104.6237873"><ele>363.76</ele><time>2025-12-02T23:57:00.000Z</time></trkpt>
        <trkpt lat="28.6859242" lon="104.6237373"><ele>364.13</ele><time>2025-12-02T23:57:08.000Z</time></trkpt>
        <trkpt lat="28.6860331" lon="104.6237182"><ele>365.21</ele><time>2025-12-02T23:57:16.000Z</time></trkpt>
        <trkpt lat="28.6861412" lon="104.6237297"><ele>366.57</ele><time>2025-12-02T23:57:24.000Z</time></trkpt>
        <trkpt lat="28.6862419" lon="104.6237579"><ele>367.12</ele><time>2025-12-02T23:57:32.000Z</time></trkpt>
        <trkpt lat="28.6863391" lon="104.6238121"><ele>367.44</ele><time>2025-12-02T23:57:40.000Z</time></trkpt>
        <trkpt lat="28.6863908" lon="104.6238869"><ele>365.87</ele><time>2025-12-02T23:57:50.000Z</time></trkpt>
        <trkpt lat="28.686437" lon="104.6239857"><ele>364.33</ele><time>2025-12-02T23:58:13.000Z</time></trkpt>
        <trkpt lat="28.6864384" lon="104.6240943"><ele>362.3</ele><time>2025-12-02T23:58:21.000Z</time></trkpt>
        <trkpt lat="28.6864124" lon="104.6242117"><ele>360.49</ele><time>2025-12-02T23:58:29.000Z</time></trkpt>
        <trkpt lat="28.6863666" lon="104.6243242"><ele>359.38</ele><time>2025-12-02T23:58:37.000Z</time></trkpt>
        <trkpt lat="28.6863137" lon="104.624438"><ele>358.37</ele><time>2025-12-02T23:58:45.000Z</time></trkpt>
        <trkpt lat="28.6862947" lon="104.6245653"><ele>357.2</ele><time>2025-12-02T23:58:53.000Z</time></trkpt>
        <trkpt lat="28.686306" lon="104.6246754"><ele>356.08</ele><time>2025-12-02T23:58:59.000Z</time></trkpt>
        <trkpt lat="28.6863335" lon="104.624799"><ele>355.5</ele><time>2025-12-02T23:59:07.000Z</time></trkpt>
        <trkpt lat="28.6863516" lon="104.6249274"><ele>355.19</ele><time>2025-12-02T23:59:15.000Z</time></trkpt>
        <trkpt lat="28.6863427" lon="104.6250422"><ele>355.38</ele><time>2025-12-02T23:59:23.000Z</time></trkpt>
        <trkpt lat="28.6863012" lon="104.6251497"><ele>355.16</ele><time>2025-12-02T23:59:31.000Z</time></trkpt>
        <trkpt lat="28.6862669" lon="104.625263"><ele>354.24</ele><time>2025-12-02T23:59:39.000Z</time></trkpt>
        <trkpt lat="28.6862565" lon="104.6253846"><ele>353.81</ele><time>2025-12-02T23:59:47.000Z</time></trkpt>
        <trkpt lat="28.6862571" lon="104.625513"><ele>353.16</ele><time>2025-12-02T23:59:55.000Z</time></trkpt>
        <trkpt lat="28.686308" lon="104.6256202"><ele>352.93</ele><time>2025-12-03T00:00:03.000Z</time></trkpt>
        <trkpt lat="28.6863953" lon="104.6256487"><ele>352.9</ele><time>2025-12-03T00:00:09.000Z</time></trkpt>
        <trkpt lat="28.6864988" lon="104.6256366"><ele>353.18</ele><time>2025-12-03T00:00:15.000Z</time></trkpt>
        <trkpt lat="28.6866147" lon="104.6256022"><ele>353.95</ele><time>2025-12-03T00:00:23.000Z</time></trkpt>
        <trkpt lat="28.6867235" lon="104.6255553"><ele>354.62</ele><time>2025-12-03T00:00:31.000Z</time></trkpt>
        <trkpt lat="28.6867907" lon="104.6254659"><ele>355.92</ele><time>2025-12-03T00:00:39.000Z</time></trkpt>
        <trkpt lat="28.6868047" lon="104.6253457"><ele>357.08</ele><time>2025-12-03T00:00:47.000Z</time></trkpt>
        <trkpt lat="28.6868152" lon="104.6252266"><ele>357.98</ele><time>2025-12-03T00:00:55.000Z</time></trkpt>
        <trkpt lat="28.6868549" lon="104.6251104"><ele>358.86</ele><time>2025-12-03T00:01:03.000Z</time></trkpt>
        <trkpt lat="28.6869174" lon="104.6250136"><ele>358.86</ele><time>2025-12-03T00:01:11.000Z</time></trkpt>
        <trkpt lat="28.6869922" lon="104.6249384"><ele>359.38</ele><time>2025-12-03T00:01:19.000Z</time></trkpt>
        <trkpt lat="28.6870712" lon="104.624869"><ele>359.98</ele><time>2025-12-03T00:01:27.000Z</time></trkpt>
        <trkpt lat="28.6871356" lon="104.6247693"><ele>360.38</ele><time>2025-12-03T00:01:36.000Z</time></trkpt>
        <trkpt lat="28.6871641" lon="104.6246523"><ele>360.71</ele><time>2025-12-03T00:01:44.000Z</time></trkpt>
        <trkpt lat="28.6871687" lon="104.6245334"><ele>361.43</ele><time>2025-12-03T00:01:52.000Z</time></trkpt>
        <trkpt lat="28.6871619" lon="104.6244123"><ele>361.74</ele><time>2025-12-03T00:02:00.000Z</time></trkpt>
        <trkpt lat="28.6871903" lon="104.6243002"><ele>362.13</ele><time>2025-12-03T00:02:08.000Z</time></trkpt>
        <trkpt lat="28.687263" lon="104.6242202"><ele>362.83</ele><time>2025-12-03T00:02:16.000Z</time></trkpt>
        <trkpt lat="28.6873655" lon="104.6242037"><ele>363.94</ele><time>2025-12-03T00:02:24.000Z</time></trkpt>
        <trkpt lat="28.6874683" lon="104.6242458"><ele>365.37</ele><time>2025-12-03T00:02:32.000Z</time></trkpt>
        <trkpt lat="28.6875582" lon="104.6243217"><ele>366.04</ele><time>2025-12-03T00:02:40.000Z</time></trkpt>
        <trkpt lat="28.6876371" lon="104.6244134"><ele>365.38</ele><time>2025-12-03T00:02:48.000Z</time></trkpt>
        <trkpt lat="28.6876758" lon="104.6245314"><ele>364.2</ele><time>2025-12-03T00:02:56.000Z</time></trkpt>
        <trkpt lat="28.6876878" lon="104.6246576"><ele>363.14</ele><time>2025-12-03T00:03:04.000Z</time></trkpt>
        <trkpt lat="28.6876878" lon="104.6247847"><ele>362.53</ele><time>2025-12-03T00:03:12.000Z</time></trkpt>
        <trkpt lat="28.6876751" lon="104.6249143"><ele>361.51</ele><time>2025-12-03T00:03:20.000Z</time></trkpt>
        <trkpt lat="28.6876549" lon="104.6250501"><ele>360.05</ele><time>2025-12-03T00:03:28.000Z</time></trkpt>
        <trkpt lat="28.6876248" lon="104.6251817"><ele>359.12</ele><time>2025-12-03T00:03:36.000Z</time></trkpt>
        <trkpt lat="28.6875899" lon="104.6253089"><ele>358.39</ele><time>2025-12-03T00:03:44.000Z</time></trkpt>
        <trkpt lat="28.6875458" lon="104.6254297"><ele>357.78</ele><time>2025-12-03T00:03:52.000Z</time></trkpt>
        <trkpt lat="28.6875203" lon="104.6255529"><ele>358.06</ele><time>2025-12-03T00:04:00.000Z</time></trkpt>
        <trkpt lat="28.6875652" lon="104.625646"><ele>357.61</ele><time>2025-12-03T00:04:07.000Z</time></trkpt>
        <trkpt lat="28.687659" lon="104.6256642"><ele>356.21</ele><time>2025-12-03T00:04:13.000Z</time></trkpt>
        <trkpt lat="28.6877643" lon="104.6256414"><ele>356.2</ele><time>2025-12-03T00:04:19.000Z</time></trkpt>
        <trkpt lat="28.687879" lon="104.6256301"><ele>355.78</ele><time>2025-12-03T00:04:27.000Z</time></trkpt>
        <trkpt lat="28.6879943" lon="104.625631"><ele>355.78</ele><time>2025-12-03T00:04:35.000Z</time></trkpt>
        <trkpt lat="28.6881044" lon="104.6256576"><ele>356.76</ele><time>2025-12-03T00:04:43.000Z</time></trkpt>
        <trkpt lat="28.6882173" lon="104.625692"><ele>357.16</ele><time>2025-12-03T00:04:51.000Z</time></trkpt>
        <trkpt lat="28.6883404" lon="104.6257095"><ele>358.02</ele><time>2025-12-03T00:04:57.000Z</time></trkpt>
        <trkpt lat="28.6884442" lon="104.6257164"><ele>359.12</ele><time>2025-12-03T00:05:01.000Z</time></trkpt>
        <trkpt lat="28.6885457" lon="104.6257182"><ele>360.18</ele><time>2025-12-03T00:05:05.000Z</time></trkpt>
        <trkpt lat="28.6886576" lon="104.6257305"><ele>361.01</ele><time>2025-12-03T00:05:10.000Z</time></trkpt>
        <trkpt lat="28.6887682" lon="104.6257272"><ele>362.01</ele><time>2025-12-03T00:05:18.000Z</time></trkpt>
        <trkpt lat="28.6888937" lon="104.6257034"><ele>361.35</ele><time>2025-12-03T00:05:24.000Z</time></trkpt>
        <trkpt lat="28.6890012" lon="104.6256757"><ele>362.3</ele><time>2025-12-03T00:05:30.000Z</time></trkpt>
        <trkpt lat="28.689088" lon="104.6256301"><ele>363.76</ele><time>2025-12-03T00:05:38.000Z</time></trkpt>
        <trkpt lat="28.6891786" lon="104.6256494"><ele>364.83</ele><time>2025-12-03T00:06:06.000Z</time></trkpt>
        <trkpt lat="28.6892735" lon="104.6256946"><ele>364.58</ele><time>2025-12-03T00:06:16.000Z</time></trkpt>
        <trkpt lat="28.6893606" lon="104.6257667"><ele>364.57</ele><time>2025-12-03T00:06:24.000Z</time></trkpt>
        <trkpt lat="28.6894479" lon="104.625853"><ele>363.26</ele><time>2025-12-03T00:06:32.000Z</time></trkpt>
        <trkpt lat="28.6895567" lon="104.6258537"><ele>361.29</ele><time>2025-12-03T00:06:41.000Z</time></trkpt>
        <trkpt lat="28.6896238" lon="104.6257733"><ele>360.5</ele><time>2025-12-03T00:06:49.000Z</time></trkpt>
        <trkpt lat="28.6896708" lon="104.6256576"><ele>360.49</ele><time>2025-12-03T00:06:57.000Z</time></trkpt>
        <trkpt lat="28.6897232" lon="104.6255377"><ele>361.02</ele><time>2025-12-03T00:07:05.000Z</time></trkpt>
        <trkpt lat="28.6898013" lon="104.6254402"><ele>361.37</ele><time>2025-12-03T00:07:13.000Z</time></trkpt>
        <trkpt lat="28.6899039" lon="104.6253892"><ele>361</ele><time>2025-12-03T00:07:21.000Z</time></trkpt>
        <trkpt lat="28.6900061" lon="104.6254251"><ele>359.8</ele><time>2025-12-03T00:07:29.000Z</time></trkpt>
        <trkpt lat="28.6901156" lon="104.6254837"><ele>359.22</ele><time>2025-12-03T00:07:37.000Z</time></trkpt>
        <trkpt lat="28.6902141" lon="104.6255045"><ele>359.26</ele><time>2025-12-03T00:07:43.000Z</time></trkpt>
        <trkpt lat="28.6903092" lon="104.6254534"><ele>359.46</ele><time>2025-12-03T00:07:51.000Z</time></trkpt>
        <trkpt lat="28.6903506" lon="104.6253514"><ele>359.62</ele><time>2025-12-03T00:07:58.000Z</time></trkpt>
        <trkpt lat="28.6903916" lon="104.6252236"><ele>360.38</ele><time>2025-12-03T00:08:06.000Z</time></trkpt>
        <trkpt lat="28.6904712" lon="104.6251227"><ele>361.44</ele><time>2025-12-03T00:08:14.000Z</time></trkpt>
        <trkpt lat="28.6905568" lon="104.625052"><ele>362.15</ele><time>2025-12-03T00:08:20.000Z</time></trkpt>
        <trkpt lat="28.6905979" lon="104.6249482"><ele>362.97</ele><time>2025-12-03T00:08:24.000Z</time></trkpt>
        <trkpt lat="28.6906227" lon="104.6248243"><ele>364.74</ele><time>2025-12-03T00:08:28.000Z</time></trkpt>
        <trkpt lat="28.6906271" lon="104.6246989"><ele>364.78</ele><time>2025-12-03T00:08:34.000Z</time></trkpt>
        <trkpt lat="28.6906433" lon="104.6245902"><ele>363.7</ele><time>2025-12-03T00:08:42.000Z</time></trkpt>
        <trkpt lat="28.6906722" lon="104.6244639"><ele>363.45</ele><time>2025-12-03T00:08:50.000Z</time></trkpt>
        <trkpt lat="28.6906919" lon="104.6243549"><ele>364.14</ele><time>2025-12-03T00:08:54.000Z</time></trkpt>
        <trkpt lat="28.6907108" lon="104.6242227"><ele>365.05</ele><time>2025-12-03T00:08:59.000Z</time></trkpt>
        <trkpt lat="28.6907243" lon="104.6241019"><ele>365.43</ele><time>2025-12-03T00:09:03.000Z</time></trkpt>
        <trkpt lat="28.6907681" lon="104.6239815"><ele>364.76</ele><time>2025-12-03T00:09:07.000Z</time></trkpt>
        <trkpt lat="28.6908413" lon="104.623883"><ele>362.81</ele><time>2025-12-03T00:09:11.000Z</time></trkpt>
        <trkpt lat="28.6909347" lon="104.6238087"><ele>360.8</ele><time>2025-12-03T00:09:15.000Z</time></trkpt>
        <trkpt lat="28.6910392" lon="104.6237891"><ele>360.61</ele><time>2025-12-03T00:09:19.000Z</time></trkpt>
        <trkpt lat="28.6911315" lon="104.6238533"><ele>360.03</ele><time>2025-12-03T00:09:23.000Z</time></trkpt>
        <trkpt lat="28.6911989" lon="104.6239599"><ele>358.39</ele><time>2025-12-03T00:09:27.000Z</time></trkpt>
        <trkpt lat="28.6912362" lon="104.6240815"><ele>357.11</ele><time>2025-12-03T00:09:31.000Z</time></trkpt>
        <trkpt lat="28.6912801" lon="104.6241935"><ele>355.9</ele><time>2025-12-03T00:09:35.000Z</time></trkpt>
        <trkpt lat="28.6913694" lon="104.6242248"><ele>354.89</ele><time>2025-12-03T00:09:39.000Z</time></trkpt>
        <trkpt lat="28.6914587" lon="104.6241683"><ele>355.07</ele><time>2025-12-03T00:09:43.000Z</time></trkpt>
        <trkpt lat="28.6915511" lon="104.624103"><ele>356.23</ele><time>2025-12-03T00:09:47.000Z</time></trkpt>
        <trkpt lat="28.6916656" lon="104.6240669"><ele>357.03</ele><time>2025-12-03T00:09:53.000Z</time></trkpt>
        <trkpt lat="28.6917393" lon="104.6241186"><ele>358.66</ele><time>2025-12-03T00:09:57.000Z</time></trkpt>
        <trkpt lat="28.6918003" lon="104.624199"><ele>359.49</ele><time>2025-12-03T00:10:01.000Z</time></trkpt>
        <trkpt lat="28.6918236" lon="104.6243339"><ele>359.52</ele><time>2025-12-03T00:10:07.000Z</time></trkpt>
        <trkpt lat="28.6918162" lon="104.6244582"><ele>357.99</ele><time>2025-12-03T00:10:11.000Z</time></trkpt>
        <trkpt lat="28.6917893" lon="104.6245807"><ele>356.84</ele><time>2025-12-03T00:10:15.000Z</time></trkpt>
        <trkpt lat="28.6917524" lon="104.6246926"><ele>355.67</ele><time>2025-12-03T00:10:19.000Z</time></trkpt>
        <trkpt lat="28.6917077" lon="104.6248043"><ele>354.74</ele><time>2025-12-03T00:10:23.000Z</time></trkpt>
        <trkpt lat="28.6916909" lon="104.6249287"><ele>353.58</ele><time>2025-12-03T00:10:27.000Z</time></trkpt>
        <trkpt lat="28.6917479" lon="104.6250345"><ele>352.87</ele><time>2025-12-03T00:10:31.000Z</time></trkpt>
        <trkpt lat="28.691862" lon="104.6250848"><ele>353.59</ele><time>2025-12-03T00:10:35.000Z</time></trkpt>
        <trkpt lat="28.6919785" lon="104.6250952"><ele>354.72</ele><time>2025-12-03T00:10:39.000Z</time></trkpt>
        <trkpt lat="28.6920847" lon="104.6250708"><ele>355.78</ele><time>2025-12-03T00:10:43.000Z</time></trkpt>
        <trkpt lat="28.6921642" lon="104.6249947"><ele>356.97</ele><time>2025-12-03T00:10:47.000Z</time></trkpt>
        <trkpt lat="28.6922117" lon="104.6248883"><ele>357.29</ele><time>2025-12-03T00:10:51.000Z</time></trkpt>
        <trkpt lat="28.692252" lon="104.6247745"><ele>357.63</ele><time>2025-12-03T00:10:55.000Z</time></trkpt>
        <trkpt lat="28.6922987" lon="104.6246539"><ele>357.72</ele><time>2025-12-03T00:11:01.000Z</time></trkpt>
        <trkpt lat="28.692311" lon="104.6245184"><ele>357.85</ele><time>2025-12-03T00:11:06.000Z</time></trkpt>
        <trkpt lat="28.6923163" lon="104.6243997"><ele>357.37</ele><time>2025-12-03T00:11:10.000Z</time></trkpt>
        <trkpt lat="28.6923287" lon="104.6242605"><ele>357.67</ele><time>2025-12-03T00:11:16.000Z</time></trkpt>
        <trkpt lat="28.6923435" lon="104.6241452"><ele>357.76</ele><time>2025-12-03T00:11:20.000Z</time></trkpt>
        <trkpt lat="28.6923536" lon="104.6240378"><ele>357.94</ele><time>2025-12-03T00:11:24.000Z</time></trkpt>
        <trkpt lat="28.6923666" lon="104.6239326"><ele>358.16</ele><time>2025-12-03T00:11:28.000Z</time></trkpt>
        <trkpt lat="28.692403" lon="104.6238001"><ele>358.36</ele><time>2025-12-03T00:11:34.000Z</time></trkpt>
        <trkpt lat="28.6924722" lon="104.6237126"><ele>359.47</ele><time>2025-12-03T00:11:42.000Z</time></trkpt>
        <trkpt lat="28.6924722" lon="104.6237126"><ele>359.47</ele><time>2025-12-03T00:12:01.000Z</time></trkpt>
      </trkseg>
  </trk>
</gpx>